İHALESİ DEVAM EDEN HASARLI ARAÇLARIN LİSTESİ

Aşağıda sınırlı sayıda hasarlı araçlar listelenmektedir.
İhaledeki tüm araçları görüp almak istediğiniz araca teklif vermeniz için aşağıda yazılı hesaplarımızdan birine 20.000 TL teminat yatırmanız gerekmektedir.
Teminat yatırdıktan sonra araçlar teklif vermeye başlayabilirsiniz. Araç kaldıktan sonra aracın rakamına göre kapora almaktayız. Ödeme geldiğinde kaporanızı ödeyeceğiniz miktardan düşüyoruz. İsterseniz yatırdığınız teminatınızı da aldığınız araçtan düşebilirsiniz ya da teminatınız durur araç almaya devam edersiniz.
Ödeme yapılacak veya bekleyen araçlar menüsünde aracınız yoksa teminatınızı geri çekebilirsiniz.
Aldığınız aracı ödemezseniz teminatınız yanar.

 #

Model

Aracın Markası Aracın Tipi Bulunduğu Şehir Kapanış Tarihi Asgari Fiyat
1 2015 Motorsiklet HONDA CBF 150 SH Malatya 1.9.2026 10:00 1.500 TL
2 2022 Motorsiklet ARORA DAZZLE 50 İstanbul 1.9.2026 10:00 1.500 TL
3 2021 Motorsiklet RKS AZURE 50 Muğla 1.9.2026 10:00 1.500 TL
4 2020 Motorsiklet FALCON ATTACK 100 Mersin 1.9.2026 10:00 1.500 TL
5 2016 Hyundai ACCENT BLUE 1.4 D-CVVT MODE PLUS Samsun 1.9.2026 10:00 250 TL
6 2022 Motorsiklet KUBA BLUEBERRY 50 İstanbul 1.9.2026 10:00 750 TL
7 2023 Motorsiklet VOLTA VS1 Ankara 1.9.2026 10:00 250 TL
8 2024 Motorsiklet MONDIAL ELEGANTE 125 Eskişehir 1.9.2026 10:00 250 TL
9 2025 Motorsiklet CSN MOTOR BEAUTY 50 Kütahya 1.9.2026 10:00 1.000 TL
10 2021 Motorsiklet ARORA CAPIROSSI 50 Uşak 1.9.2026 10:00 1.000 TL
11 2023 Motorsiklet RKS SPONTINI 110 (GST110T-14) Bursa 1.9.2026 10:00 1.000 TL
12 2024 Motorsiklet ALTAI CARRIER 110 PRO İstanbul 1.9.2026 10:00 1.000 TL
13 2023 Motorsiklet MONDIAL 50 wing Denizli 1.9.2026 10:00 1.000 TL
14 2024 Motorsiklet MONDIAL EXON 50 Ankara 1.9.2026 10:00 1.000 TL
15 2014 Motorsiklet MONDIAL 100 SUPERBOY i İstanbul 1.9.2026 10:00 1.000 TL
16 2022 Motorsiklet TVS WEGO 110 FI Adana 1.9.2026 10:30 2.000 TL
17 2018 Motorsiklet RKS WINNER 200 Sakarya 1.9.2026 10:30 2.500 TL
18 2024 Motorsiklet ABUSH SPEEDY 110i Siirt 1.9.2026 10:30 2.000 TL
19 2022 Motorsiklet MONDIAL 125 DRİFT L İzmir 1.9.2026 10:30 2.000 TL
20 2023 Motorsiklet HONDA CB 125 Kocaeli 1.9.2026 10:30 2.500 TL
21 2021 Motorsiklet MONDIAL WİNG 50 İstanbul 1.9.2026 10:30 1.500 TL
22 2023 Motorsiklet MONDIAL AİRTİME 50CC Isparta 1.9.2026 10:30 1.500 TL
23 2021 Motorsiklet REVOLT RM5 X MAXI SCOOTER İzmir 1.9.2026 10:30 1.500 TL
24 2024 Motorsiklet ARORA AR 06 Samsun 1.9.2026 10:30 2.500 TL
25 2025 Motorsiklet TVS JUPITER 125 Adana 1.9.2026 10:30 2.500 TL
26 2024 Motorsiklet MUSATTI GLAMARO MAX 125 İstanbul 1.9.2026 10:30 2.000 TL
27 2023 Motorsiklet RKS SPONTINI 110 (GST110T-14) İstanbul 1.9.2026 10:30 2.500 TL
28 1993 Motorsiklet HONDA KINETIC Kilis 1.9.2026 10:30 1.500 TL
29 2024 Motorsiklet MONDIAL 125 DRIFT L CBS Kayseri 1.9.2026 10:30 2.000 TL
30 2024 Motorsiklet APEC PS3 50 Ankara 1.9.2026 10:30 2.000 TL
31 2018 Motorsiklet HONDA ACTIVA S (NSC125) İstanbul 1.9.2026 11:00 3.000 TL
32 2023 Motorsiklet MONDIAL WİNG 50 Aydın 1.9.2026 11:00 3.000 TL
33 2022 Motorsiklet MOTOLUX CEO 110 Gaziantep 1.9.2026 11:00 3.000 TL
34 2024 Motorsiklet SFM BUNDERA 50 Ordu 1.9.2026 11:00 3.000 TL
35 1992 Opel VECTRA 2.0 GL Kütahya 1.9.2026 11:00 3.000 TL
36 2025 Motorsiklet MONDIAL 125 DRİFT L Kocaeli 1.9.2026 11:00 3.000 TL
37 2023 Motorsiklet CFMOTO 250 SR Amasya 1.9.2026 11:00 3.000 TL
38 2020 Motorsiklet HONDA ACTIVA S (NSC125) İstanbul 1.9.2026 11:00 3.000 TL
39 1994 Fiat/Tofaş SAHİN 1.6 Antalya 1.9.2026 11:00 3.000 TL
40 2024 Motorsiklet CFMOTO 250 SR İzmir 1.9.2026 11:00 3.000 TL
41 1994 Renault SPRING İstanbul 1.9.2026 11:00 3.000 TL
42 2025 Motorsiklet CFMOTO 250 NK Ankara 1.9.2026 11:00 3.000 TL
43 1989 Opel KADETT GL 1.3 İzmir 1.9.2026 11:00 2.500 TL
44 2024 Motorsiklet ARORA MT 125 Ankara 1.9.2026 11:00 3.000 TL
45 2024 Motorsiklet FALCON SALVADOR 188 Çorum 1.9.2026 11:00 2.500 TL
46 2025 Motorsiklet TVS RAIDER Kocaeli 1.9.2026 11:30 6.000 TL
47 1991 Toyota CORONA GL Antalya 1.9.2026 11:30 3.500 TL
48 2025 Hyundai BAYON 1.0T ELITE DCT İzmir 1.9.2026 11:30 5.000 TL
49 1993 Renault 12 TOROS SEDAN Elazığ 1.9.2026 11:30 7.000 TL
50 1988 Renault 12 TSW Karabük 1.9.2026 11:30 3.500 TL
51 1990 Renault TOROS Tekirdağ 1.9.2026 11:30 3.500 TL
52 2016 Motorsiklet HONDA CBR 125 R İzmir 1.9.2026 11:30 5.500 TL
53 2024 Motorsiklet SKYJET RIVERO 125 İstanbul 1.9.2026 11:30 6.500 TL
54 2024 Motorsiklet YUKI TARO GP2 Konya 1.9.2026 11:30 5.500 TL
55 2020 Fiat/Tofaş EGEA SEDAN URBAN PLUS 1.4 FIRE 95 E6D Muş 1.9.2026 11:30 4.500 TL
56 2023 Motorsiklet RKS SPONTINI 125 İstanbul 1.9.2026 11:30 4.500 TL
57 2023 Motorsiklet MONDİAL STRADA 125 Muğla 1.9.2026 11:30 3.500 TL
58 1996 Fiat/Tofaş TİPO 1.6 SLX Manisa 1.9.2026 11:30 4.000 TL
59 2018 Motorsiklet LIFAN DISCOVERY 150 (LF150-9J) Isparta 1.9.2026 11:30 3.000 TL
60 2025 Motorsiklet MONDIAL SFC 50 Kahramanmaraş 1.9.2026 11:30 5.500 TL
61 2009 Motorsiklet HONDA ACTIVA 100 Antalya 1.9.2026 12:00 8.500 TL
62 2025 Motorsiklet KUBA SPACEMAX 50 İstanbul 1.9.2026 12:00 8.000 TL
63 2024 Motorsiklet RKS SRK 125 R Zonguldak 1.9.2026 12:00 16.000 TL
64 2025 Motorsiklet MONDIAL 125 DRİFT L Samsun 1.9.2026 12:00 15.500 TL
65 1998 Mazda 323 FAMILIA 1.5 SEDAN Kütahya 1.9.2026 12:00 20.500 TL
66 2025 Motorsiklet RKS VRS125 Ankara 1.9.2026 12:00 9.000 TL
67 2024 Motorsiklet MONDIAL 125 DRİFT L Ankara 1.9.2026 12:00 8.500 TL
68 2024 Motorsiklet RKS RZ250S İstanbul 1.9.2026 12:00 19.500 TL
69 2025 Motorsiklet KUBA NEWCITY 50 İstanbul 1.9.2026 12:00 7.000 TL
70 2023 Motorsiklet HONDA ACTIVA 125 Düzce 1.9.2026 12:00 12.500 TL
71 2005 Peugeot PARTNER ORIGIN VAN 190C 1.9D İzmir 1.9.2026 12:00 8.500 TL
72 1991 Fiat/Tofaş DOGAN 1.6 Karabük 1.9.2026 12:00 10.000 TL
73 2005 Opel CORSA VAN 1.3 CDTi COMFORT Bursa 1.9.2026 12:00 12.000 TL
74 2009 Dacia LOGAN AMBIANCE 1.4 Muş 1.9.2026 12:00 9.500 TL
75 1998 Fiat/Tofaş SAHIN 1.4 İstanbul 1.9.2026 12:00 10.500 TL
76 2023 Motorsiklet RKS SPONTINI 110 İstanbul 1.9.2026 13:30 28.000 TL
77 2023 Motorsiklet KUBA VN50 PRO İzmir 1.9.2026 13:30 27.000 TL
78 2025 Motorsiklet REVOLT RSX5 150 Düzce 1.9.2026 13:30 29.000 TL
79 2021 Motorsiklet MOTOLUX CEO 110 İstanbul 1.9.2026 13:30 21.000 TL
80 2000 Fiat/Tofaş PALIO 1.4 EL Bursa 1.9.2026 13:30 37.500 TL
81 2026 Motorsiklet ARORA MAX PRO Aydın 1.9.2026 13:30 35.000 TL
82 2023 Motorsiklet PULSAR NS 200 İstanbul 1.9.2026 13:30 37.500 TL
83 2026 Motorsiklet YUKI VOGE R125 İzmir 1.9.2026 13:30 37.500 TL
84 1993 Fiat/Tofaş DOGAN SL İstanbul 1.9.2026 13:30 26.000 TL
85 2024 Motorsiklet VOGE SR3 Adana 1.9.2026 13:30 37.500 TL
86 2023 Motorsiklet HONDA ACTİVA 125 Bursa 1.9.2026 13:30 22.500 TL
87 1996 Fiat/Tofaş SAHİN Konya 1.9.2026 13:30 21.000 TL
88 2011 Geely CK ECHO 1.3 COMFORT Antalya 1.9.2026 13:30 46.000 TL
89 2026 Motorsiklet CFMOTO 250 SR Bursa 1.9.2026 13:30 27.500 TL
90 2004 Skoda OCTAVIA 1.6 AMBIENTE İstanbul 1.9.2026 13:30 34.500 TL
91 2000 Ford FOCUS 1.6i AMBIENTE SEDAN Ankara 1.9.2026 14:00 138.000 TL
92 2020 Motorsiklet HONDA PCX 125 İstanbul 1.9.2026 14:00 62.500 TL
93 2024 Motorsiklet CFMOTO 250 SR Bursa 1.9.2026 14:00 61.500 TL
94 2025 Motorsiklet CFMOTO 250 SR İstanbul 1.9.2026 14:00 75.000 TL
95 2002 Peugeot 206 1.4 COLORLINE Ankara 1.9.2026 14:00 100.000 TL
96 1996 Renault 19 EUROPA 1.6i RNE Bartın 1.9.2026 14:00 65.500 TL
97 2005 Opel ASTRA CLASSIC 1.4 SEDAN İstanbul 1.9.2026 14:00 129.500 TL
98 1998 Fiat/Tofaş DOGAN SLX Erzincan 1.9.2026 14:00 57.000 TL
99 2011 Renault FLUENCE BUSINESS 1.5 DCI (85) Gaziantep 1.9.2026 14:00 79.500 TL
100 2012 Fiat/Tofaş LINEA ACTIVE PLUS 1.3 MULTIJET İstanbul 1.9.2026 14:00 92.000 TL
101 2006 Hyundai GETZ 1.5 CRDİ HY KLM Giresun 1.9.2026 14:00 99.500 TL
102 2004 Kia RIO 1.5 SEDAN TREND Düzce 1.9.2026 14:00 54.500 TL
103 2004 Peugeot 307 XT 1.6 Ankara 1.9.2026 14:00 112.500 TL
104 2024 Motorsiklet APRILIA RS 457 İstanbul 1.9.2026 14:00 64.500 TL
105 2011 Ssangyong KYRON 4X4 Adana 1.9.2026 14:00 120.500 TL
106 2012 Renault LATITUDE PRIVILEGE 1.5 DCI 110 E5 Malatya 1.9.2026 14:30 188.000 TL
107 2016 Renault SYMBOL JOY 1.5 DCI 90 Diyarbakır 1.9.2026 14:30 212.000 TL
108 2012 Hyundai ACCENT BLUE 1.6 CRDI MODE PLUS Ankara 1.9.2026 14:30 238.000 TL
109 2010 Hyundai ACCENT ERA 1.4 Antalya 1.9.2026 14:30 154.500 TL
110 2016 Fiat/Tofaş FIORINO COMBI 1.3 M.JET 75 SAFELINE İstanbul 1.9.2026 14:30 250.000 TL
111 2006 Volkswagen CADDY KOMBI 1.9 TDI Antalya 1.9.2026 14:30 242.000 TL
112 2024 Motorsiklet CFMOTO 450 SR Ankara 1.9.2026 14:30 158.000 TL
113 2014 Ford CARGO 1846 T Kocaeli 1.9.2026 14:30 248.500 TL
114 2004 Hyundai SANTA FE 2.0 CRDi VGT H-MATIC İstanbul 1.9.2026 14:30 178.500 TL
115 2024 Motorsiklet KAWASAKI NINJA 500 İstanbul 1.9.2026 14:30 153.000 TL
116 2004 Volvo S40 1.6 Kastamonu 1.9.2026 14:30 144.000 TL
117 2011 Peugeot 308 COMFORT 1.6 HDI (110) 5 KAPI İstanbul 1.9.2026 14:30 199.000 TL
118 2026 Motorsiklet HONDA NSS250A FORZA 250 İstanbul 1.9.2026 14:30 193.000 TL
119 2008 Magirus SULTAN 145 S Muğla 1.9.2026 14:30 161.500 TL
120 2023 Opel MOKKA 1.2 130 AT8 GS Bursa 1.9.2026 14:30 244.500 TL
121 2004 Volkswagen GOLF 1.6 FSI COMFORTLINE Ankara 1.9.2026 15:00 318.000 TL
122 2008 Skoda OCTAVIA 1.6 ELEGANCE (102) Ankara 1.9.2026 15:00 313.500 TL
123 2014 Peugeot 208 ACCESS 1.0 VTI 68 Ankara 1.9.2026 15:00 278.000 TL
124 2013 Ford FOCUS 1.6 TDCİ TİTANİUM Ankara 1.9.2026 15:00 326.000 TL
125 2019 Fiat/Tofaş EGEA SEDAN EASY 1.4 FIRE 95 Ankara 1.9.2026 15:00 334.000 TL
126 2016 Dacia DUSTER LAURATE 1.5 DCI (110) Ankara 1.9.2026 15:00 323.000 TL
127 2005 Volkswagen GOLF 1.6 MIDLINE Ankara 1.9.2026 15:00 275.000 TL
128 2013 Renault FLUENCE JOY 1.5 DCI 90 Ankara 1.9.2026 15:00 251.000 TL
129 2016 Kia BONGO K2500 CIFT TEKER KASALI KAMYONET Ankara 1.9.2026 15:00 276.000 TL
130 2015 Peugeot 208 ACTIVE 1.2 PURETECH 82 ETG5 Diyarbakır 1.9.2026 15:00 316.500 TL
131 2016 Opel INSIGNIA NB 1.6D 136 AT6 COSMO Şırnak 1.9.2026 15:00 309.500 TL
132 2023 Dacia SPRING EXTREME ELECTRIC 65 İstanbul 1.9.2026 15:00 289.500 TL
133 2013 Skoda SUPERB ELEGANCE 1.6 TDI CR (105) Batman 1.9.2026 15:00 360.000 TL
134 2007 Mitsubishi CANTER KAMYON FE 859 G Ankara 1.9.2026 15:00 338.000 TL
135 2020 Ford TRANSIT 410L VAN 170 AWD AMBULANS İstanbul 1.9.2026 15:00 265.500 TL
136 2012 Opel INSIGNIA HB COSMO 2.8 (260) 4x4 OV İstanbul 1.9.2026 15:00 285.000 TL
137 2016 Toyota AURIS 1.33 LİFE Tekirdağ 1.9.2026 15:15 1.000 TL
138 2022 Hyundai TUCSON 1.6 CRDI Adana 1.9.2026 15:15 790.000 TL
139 2022 Ford TOURNEO COURIER JOURNEY 1.5 TDCI Kayseri 1.9.2026 15:15 100.000 TL
140 2018 Volkswagen POLO 1.0 TSI İstanbul 1.9.2026 15:15 50.500 TL
141 2016 Mercedes A 180 D Uşak 1.9.2026 15:15 1.000 TL
142 2017 Suzuki BALENO 1.2 Bursa 1.9.2026 15:15 1.000 TL
143 2012 Renault CLIO HB 1.6 Ankara 1.9.2026 15:15 1.000 TL
144 2019 Renault CLIO 1.5 DCI TOUCH Kayseri 1.9.2026 15:15 1.000 TL
145 2018 Renault MEGANE SEDAN 1.5 DCI İstanbul 1.9.2026 15:15 500.000 TL
146 2009 Skoda SUPERB 1.4 TSI İstanbul 1.9.2026 15:15 1.000 TL
147 2022 Skoda FABIA 1.0 TSI İzmir 1.9.2026 15:15 1.000 TL
148 2024 Citroen C4 X 1.2 PURETECH İzmir 1.9.2026 15:15 415.000 TL
149 2023 Volkswagen TAIGO 1.0 TSI Antalya 1.9.2026 15:15 616.000 TL
150 2018 Skoda KODIAQ 1.4 TSI Trabzon 1.9.2026 15:15 50.500 TL
151 2010 Renault FLUENCE 1.5 DCI Sivas 1.9.2026 15:15 1.000 TL
152 2020 Seat ARONA 1.0 ECOTSI Kayseri 1.9.2026 15:15 1.000 TL
153 2022 Volkswagen PASSAT 1.5 TSI Adana 1.9.2026 15:15 10.500 TL
154 2024 Volkswagen GOLF 1.5 eTSI Ankara 1.9.2026 15:15 1.500 TL
155 2025 Mercedes CEKICI ACTROS 1848 LS 4x2 FL Kocaeli 1.9.2026 15:15 1.550.500 TL
156 2018 Renault MEGANE SEDAN 1.5 DCI Bursa 1.9.2026 15:15 658.800 TL
157 2017 Fiat/Tofaş EGEA S.WAGON 1.6 M.JET Mersin 1.9.2026 15:15 525.000 TL
158 2026 Peugeot 2008 1.2 HYBRID Samsun 1.9.2026 15:15 333.000 TL
159 2024 Renault MEGANE SEDAN 1.3 TCE İstanbul 1.9.2026 15:15 1.500 TL
160 2012 Volkswagen JETTA 1.6 TDI Ankara 1.9.2026 15:15 1.000 TL
161 2023 Nissan QASHQAI 1.3 DIG-T Eskişehir 1.9.2026 15:15 500.000 TL
162 2013 Suzuki SWIFT 1.2 GL İstanbul 1.9.2026 15:15 30.000 TL
163 2023 Bmw 520i SEDAN 1.6 İstanbul 1.9.2026 15:15 500.500 TL
164 2012 Fiat/Tofaş ALBEA SOLE 1.4 Ankara 1.9.2026 15:15 1.000 TL
165 2024 Volkswagen T-ROC 1.5 TSI Konya 1.9.2026 15:15 1.000 TL
166 2024 Volkswagen TIGUAN 1.5 Van 1.9.2026 15:15 100.200 TL
167 2021 Opel CORSA 1.2 İzmir 1.9.2026 15:15 100.200 TL
168 2025 Opel FRONTERA-E 83 KW GS Bursa 1.9.2026 15:15 1.000 TL
169 2023 Hyundai IONIQ 6 Bursa 1.9.2026 15:15 100.200 TL
170 2023 Ford FOCUS SW 1.5 ECOBLUE Van 1.9.2026 15:15 1.000 TL
171 2018 Bmw 418i GRAN COUPE 1.5 İstanbul 1.9.2026 15:15 1.000 TL
172 2015 Honda CIVIC SEDAN 1.6i VTEC Adana 1.9.2026 15:30 1.000 TL
173 2012 Volkswagen POLO 1.2 TREND Siirt 1.9.2026 15:30 1.000 TL
174 2011 Bmw 520D Muğla 1.9.2026 15:30 1.000 TL
175 2021 Mitsubishi L200 CIFT KABIN KAMYONET 2.2 4x4 STORM MT İstanbul 1.9.2026 15:30 1.000 TL
176 2023 Toyota COROLLA 1.5 DREAM MULTIDRIVE S FL İzmir 1.9.2026 15:30 1.000 TL
177 2008 Renault LAGUNA 1.6 EXPRESSION Şanlıurfa 1.9.2026 15:30 1.000 TL
178 2023 Bmw 520i SEDAN LCI 1.6 170 M SPORT Ankara 1.9.2026 15:30 1.000 TL
179 2023 Motorsiklet MAX T 125 Bursa 1.9.2026 15:30 1.000 TL
180 2009 Renault KANGOO MULTIX AUTHENTIQUE 1.5 DCI Ordu 1.9.2026 15:30 1.000 TL
181 2018 Honda CIVIC SEDAN ECO EXECUTIVE 1.6 (125) OV Erzurum 1.9.2026 15:30 1.000 TL
182 1990 Renault 12 TOROS SW Erzincan 1.9.2026 15:30 1.000 TL
183 2022 Ford F-MAX 500 Comfort Plus Kocaeli 1.9.2026 15:30 1.000 TL
184 1992 Fiat/Tofaş ŞAHİN 1.6 Antalya 1.9.2026 15:30 1.000 TL
185 2025 Hyundai i20 1.0 T 90 ELITE DCT Erzincan 1.9.2026 15:30 1.000 TL
186 2025 Hyundai BAYON FL 1.0 T-GDI 100 ELITE DCT Şanlıurfa 1.9.2026 15:30 1.000 TL
187 2022 Hyundai BAYON 1.4 MPI JUMP 6MT Bursa 1.9.2026 15:30 1.000 TL
188 2021 Renault EXPRESS VAN JOY 1.5 BLUEDCI 95 Erzurum 1.9.2026 15:30 1.000 TL
189 2024 Motorsiklet DUTY 125 Şehir Seç 1.9.2026 15:30 1.000 TL
190 1999 Mitsubishi CANTER KAMYONET FE 635 Antalya 1.9.2026 15:30 1.000 TL
191 2025 Motorsiklet SKYTOWN 125 İstanbul 1.9.2026 15:30 1.000 TL
192 2005 Motorsiklet MONSTER 620 DARK İstanbul 1.9.2026 15:30 1.000 TL
193 2026 Peugeot RIFTER ALLURE 1.5 BLUEHDI 130 EAT8 FL Diyarbakır 1.9.2026 15:30 1.000 TL
194 2015 Fiat/Tofaş DOBLO COMBI 1.6 M.JET 105 E5 SAFELINE İstanbul 1.9.2026 15:30 1.000 TL
195 2026 Renault DUSTER EVOLUTION TURBO TCE EDC 145 Bursa 1.9.2026 15:30 1.000 TL
196 2020 Fiat/Tofaş FIORINO COMBI POP 1.3 M.JET 95 E6D İstanbul 1.9.2026 15:30 1.000 TL
197 2015 Skoda SUPERB ELEGANCE 1.6 TDI CR 105 DSG GREENTECH Trabzon 1.9.2026 15:30 1.000 TL
198 1998 Renault EUROPA 1.6i Şehir Seç 1.9.2026 15:30 1.000 TL
199 1995 Fiat/Tofaş SAHIN 1.6 İstanbul 1.9.2026 15:30 1.000 TL
200 2016 Nissan QASHQAI 1.6 DCI Gaziantep 1.9.2026 15:30 1.000 TL
201 2023 Honda PCX 125 Kocaeli 1.9.2026 15:30 1.000 TL
202 2024 Motorsiklet 250 SR Trabzon 1.9.2026 15:30 1.000 TL
203 2011 Fiat/Tofaş PUNTO EVO DYNAMIC 1.4 FIRE (77) İstanbul 1.9.2026 15:30 1.000 TL
204 2005 Dacia LOGAN AMBIANCE PACK 1.4 İzmir 1.9.2026 15:30 1.000 TL
205 2013 Fiat/Tofaş DOBLO COMBI 1.3 M.JET 90 E5 SAFELİNE İzmir 1.9.2026 15:30 1.000 TL
206 1998 Fiat/Tofaş TIPO SX ie 1.4 Bartın 1.9.2026 15:30 1.000 TL
207 2010 Ford TRANSIT 300 S KOMBI 50.YIL Ankara 1.9.2026 15:30 1.000 TL
208 2015 Ford TOURNEO COURIER KOMBI 1.6 TDCI 95 TITANIUM Hatay 1.9.2026 15:30 1.000 TL
209 2023 Suzuki BURGMAN STREET 125 İstanbul 1.9.2026 15:30 1.000 TL
210 2022 Mercedes E 200 D FL EXCLUSIVE Batman 1.9.2026 15:30 1.000 TL
211 2019 Honda CIVIC 4D ELEGANCE 1.6 125 Şanlıurfa 1.9.2026 15:30 1.000 TL
212 2021 Motorsiklet VESTA 50 Aydın 1.9.2026 15:30 1.000 TL
213 2024 Motorsiklet APACHE RTR 200 4V E5 Kocaeli 1.9.2026 15:30 1.000 TL
214 2016 Opel CORSA 5 KAPI ENJOY 1.4 90 OV Muğla 1.9.2026 15:30 1.000 TL
215 2015 Fiat/Tofaş FIORINO COMBI 1.3 M.JET 75 E5 EMOTION Isparta 1.9.2026 15:30 1.000 TL
216 2016 Honda HR-V 1.5 130 EXECUTIVE OV İzmir 1.9.2026 15:30 1.000 TL
217 2013 Citroen C5 1.6 HDI (115) Confort Ankara 1.9.2026 15:30 1.000 TL
218 1999 Fiat/Tofaş SIENA 1.4 EL Ankara 1.9.2026 15:30 1.000 TL
219 2005 Renault MEGANE II SEDAN DYNAMIQUE 1.5 DCI Antalya 1.9.2026 15:30 1.000 TL
220 2024 Motorsiklet AZURE 50 Eskişehir 1.9.2026 15:30 1.000 TL
221 2003 Hyundai ACCENT 1.3 ADMIRE (Y) Balıkesir 1.9.2026 15:30 1.000 TL
222 2026 Volkswagen TAIGO 1.0 TSI 116 LIFE DSG İzmir 1.9.2026 15:30 1.000 TL
223 2025 Toyota PROACE CITY CARGO 1.5 D DREAM 6 MT Hatay 1.9.2026 15:30 1.000 TL
224 2004 Mercedes E 320 Erzurum 1.9.2026 15:30 1.000 TL
225 2022 Dacia SANDERO STEPWAY PRESTIGE 1.0 TURBO XTRONIC 90 Muğla 1.9.2026 15:30 1.000 TL
226 2023 Motorsiklet 250 NK Kütahya 1.9.2026 15:30 1.000 TL
227 2012 Renault CEKICI PREMIUM 460.18 T 4x2 Kayseri 1.9.2026 15:30 1.000 TL
228 2023 Honda PCX 125 Antalya 1.9.2026 15:30 1.000 TL
229 2016 Kia CERATO CONCEPT PLUS 1.6 DIZEL 136 DCT İstanbul 1.9.2026 15:30 1.000 TL
230 2005 Opel CORSA 1.3 CDTi 5 KAPI ESSENTIA Antalya 1.9.2026 15:30 1.000 TL
231 2019 Citroen BERLINGO VAN 1.6 BLUEHDI 100 Muğla 1.9.2026 15:30 1.000 TL
232 2024 Motorsiklet NEWLIGHT 125 PRO İzmir 1.9.2026 15:30 1.000 TL
233 2021 Ford TRANSIT VAN 350L 11M3 ECOBLUE 170 TREND E6.2 Muğla 1.9.2026 15:30 1.000 TL
234 2024 Motorsiklet TURISMO 50 JJ50QT-3 Kahramanmaraş 1.9.2026 15:30 1.000 TL
235 2006 Peugeot 206 X DESIGN 1.4 Şehir Seç 1.9.2026 15:30 1.000 TL
236 2024 Motorsiklet GRACE 50 İstanbul 1.9.2026 15:30 1.000 TL
237 2023 Ford CEKICI F-MAX COMFORT PLUS PACK Mersin 1.9.2026 15:30 1.000 TL
238 2018 Motorsiklet Lifan Lion 100 Giresun 1.9.2026 15:30 1.000 TL
239 2017 Motorsiklet 150 MR VULTURE Antalya 1.9.2026 15:30 1.000 TL
240 1995 Fiat/Tofaş SAHIN S Ankara 1.9.2026 15:30 1.000 TL
241 2022 Motorsiklet NEQS İstanbul 1.9.2026 15:30 1.000 TL
242 2023 Motorsiklet TK 03 Bursa 1.9.2026 15:30 1.000 TL
243 2016 Mercedes SLC 180 1.6 AMG Antalya 1.9.2026 15:30 1.000 TL
244 2025 Volkswagen T-ROC 1.5 TSI 150 DSG LIFE Adana 1.9.2026 15:30 1.000 TL
245 2007 Audi A6 2.0 TDI Eskişehir 1.9.2026 15:30 1.000 TL
246 2014 Seat LEON SC 1.4 TSI 140 FR Antalya 1.9.2026 15:30 1.000 TL
247 2012 Man CEKICI TGS 18.400 4x2 BLS Konya 1.9.2026 15:30 1.000 TL
248 2020 Opel GRANDLAND X 1.2 130 İstanbul 1.9.2026 15:30 1.000 TL
249 1998 Hyundai ACCENT 1.5 GLS Ankara 1.9.2026 15:30 1.000 TL
250 2022 Fiat/Tofaş DOBLO CARGO 1,6 MULTIJET Bursa 1.9.2026 15:30 1.000 TL
251 2005 Toyota COROLLA 1.6 SOL Ankara 1.9.2026 15:30 1.000 TL
252 1994 Ford ESCORT 1.6 Afyonkarahisar 1.9.2026 15:30 1.000 TL
253 2009 Fiat/Tofaş ALBEA SOLE 1.3 MULTIJET DYNAMIC Samsun 1.9.2026 15:30 1.000 TL
254 2016 Ford TRANSIT 350 E İzmir 1.9.2026 15:30 1.000 TL
255 2026 Motorsiklet SRK 125 R Adıyaman 1.9.2026 15:30 1.000 TL
256 2023 Citroen C3 AIRCROSS 1.2 PURETECH Kayseri 1.9.2026 15:30 1.000 TL
257 2020 Dacia DOKKER COMBI 1.6 Kastamonu 1.9.2026 15:30 1.000 TL
258 2024 Motorsiklet SRK 250 RR Hatay 1.9.2026 15:30 1.000 TL
259 2016 Dacia SANDERO STEPWAY 1.5 DCI Artvin 1.9.2026 15:30 1.000 TL
260 2025 Motorsiklet LT 50 İstanbul 1.9.2026 15:30 1.000 TL
261 2024 Tesla MODEL Y RWD STANDART RANGE İstanbul 1.9.2026 15:30 1.000 TL
262 2023 Honda DIO Karabük 1.9.2026 15:30 1.000 TL
263 2021 Opel CORSA 1.2 T İstanbul 1.9.2026 15:30 1.000 TL
264 2015 Ford FOCUS 1,5 TDCİ Ankara 1.9.2026 15:30 1.000 TL
265 2022 Fiat/Tofaş DUCATO MINIBUS 16+1 2.2 İzmir 1.9.2026 15:30 1.000 TL
266 2008 Opel ASTRA 1,3 CDTİ ENJOY Ordu 1.9.2026 15:30 1.000 TL
267 2020 Renault MEGANE 1,3 TCE Kocaeli 1.9.2026 15:30 1.000 TL
268 2021 Renault MEGANE SEDAN JOY 1.3 TCE Kayseri 1.9.2026 15:30 1.000 TL
269 2024 Motorsiklet RAIDER 125 Adana 1.9.2026 15:30 1.000 TL
270 2009 Renault SYMBOL AUTHENTIQUE 1.4 Şehir Seç 1.9.2026 15:30 1.000 TL
271 2008 Opel ASTRA NB 1.3 CDTi Burdur 1.9.2026 15:30 1.000 TL
272 2026 Motorsiklet SRK 125 R İstanbul 1.9.2026 15:30 1.000 TL
273 1995 Renault BROADWAY 1.4 Erzurum 1.9.2026 15:30 1.000 TL
274 2015 Kia RIO HB 1.4 DIZEL İzmir 1.9.2026 15:30 1.000 TL
275 1996 Renault LAGUNA 2.0 RXE Ankara 1.9.2026 15:30 1.000 TL
276 2025 Peugeot 408 ALLURE 1.2 PURETECH Ankara 1.9.2026 15:30 1.000 TL
277 2024 Motorsiklet SRK 125 R İstanbul 1.9.2026 15:30 1.000 TL
278 2000 Renault BROADWAY 1.4 RN Elazığ 1.9.2026 15:30 1.000 TL
279 2024 Honda CBR 500 RA Tekirdağ 1.9.2026 15:30 1.000 TL
280 2015 Ford TOURNEO COURIER 1.6 TDCI Ankara 1.9.2026 15:30 1.000 TL
281 1993 Bmw 318I/4 İstanbul 1.9.2026 15:30 1.000 TL
282 1998 Renault BROADWAY 1.4 Ankara 1.9.2026 15:30 1.000 TL
283 1989 Mercedes 190 E Kocaeli 1.9.2026 15:30 1.000 TL
284 2024 Fiat/Tofaş EGEA SEDAN 1.3 M.JET Zonguldak 1.9.2026 15:30 1.000 TL
285 2005 Renault MEGANE SEDAN 1.5 DCI Denizli 1.9.2026 15:30 1.000 TL
286 2025 Motorsiklet 250 SR Ankara 1.9.2026 15:30 1.000 TL
287 2014 Mini COOPER D COUNTRYMAN Kocaeli 1.9.2026 15:30 1.000 TL
288 2023 Motorsiklet AZURE 50 Kocaeli 1.9.2026 15:30 1.000 TL
289 2023 Chery OMODA 5 Ankara 1.9.2026 15:30 1.000 TL
290 2006 Bmw 316i 1,6 İzmir 1.9.2026 15:30 1.000 TL
291 2017 Volkswagen GOLF 1.4 TSI Bursa 1.9.2026 15:30 1.000 TL
292 2013 Dacia DOKKER 1,5 DCİ Karaman 1.9.2026 15:30 1.000 TL
293 2021 Fiat/Tofaş DOBLO COMBI 1.6 M.JET İstanbul 1.9.2026 15:30 1.000 TL
294 2014 Kia BONGO K2500 Sakarya 1.9.2026 15:30 1.000 TL
295 2002 Fiat/Tofaş MAREA 1.6 EXCLUSIVE Eskişehir 1.9.2026 15:30 1.000 TL
296 2024 Motorsiklet SRK 125 R Kayseri 1.9.2026 15:30 1.000 TL
297 2020 Ford ECOSPORT 1.0 ECOBOOST Antalya 1.9.2026 15:30 1.000 TL
298 2011 Renault SYMBOL AUTHENTIQUE 1.5 DCI 65 Balıkesir 1.9.2026 15:30 1.000 TL
299 2020 Volkswagen T-ROC 1.5 TSİ Uşak 1.9.2026 15:30 1.000 TL
300 2025 Peugeot 408 ALLURE 1.2 PURETECH Bursa 1.9.2026 15:30 1.000 TL
301 2025 Ford TRANSIT CUSTOM 2.0L Manisa 1.9.2026 15:30 TL
302 2009 Peugeot 308 COMFORT 1.6 HDI Konya 1.9.2026 15:30 1.000 TL
303 2026 Ford TOURNEO COURIER 1.5 ECOBLUE DELUXE Samsun 1.9.2026 15:30 1.000 TL
304 2025 Honda FORZA 250 Kocaeli 1.9.2026 15:30 1.000 TL
305 2023 Motorsiklet AROME 125 İstanbul 1.9.2026 15:30 1.000 TL
306 2025 Citroen C5 AIRCROSS 1.5 BLUEHDI MAX Afyonkarahisar 1.9.2026 15:30 1.000 TL
307 2016 Mercedes CLA 180 D İstanbul 1.9.2026 15:30 1.000 TL
308 2023 Motorsiklet MT 125 Konya 1.9.2026 15:30 1.000 TL
309 1982 Renault 12 TS Çorum 1.9.2026 15:30 1.000 TL
310 2016 Motorsiklet TIGER 100 SPORT Ankara 1.9.2026 15:30 TL
311 1990 Fiat/Tofaş SERCE Samsun 1.9.2026 15:30 1.000 TL
312 2001 Seat TOLEDO 1.6 SEDAN Nevşehir 1.9.2026 15:30 1.000 TL
313 2009 Fiat/Tofaş PALIO HB 1.4 İzmir 1.9.2026 15:30 1.000 TL
314 2006 Toyota COROLLA 1.4 D 4D SEDAN Şanlıurfa 1.9.2026 15:30 1.000 TL
315 1996 Chrysler LHS 3.5 Şehir Seç 1.9.2026 15:30 1.000 TL
316 2016 Motorsiklet YMAHA YBR 125 Antalya 1.9.2026 15:30 1.000 TL
317 2025 Motorsiklet RSX4 125 Antalya 1.9.2026 15:30 1.000 TL
318 2013 Opel MOKKA 1.4 Bitlis 1.9.2026 15:30 1.000 TL
319 2024 Dacia SANDERO STEPWAY 1.0 T Kocaeli 1.9.2026 15:30 1.000 TL
320 2024 Honda PCX 125 Kayseri 1.9.2026 15:30 1.000 TL
321 2016 Fiat/Tofaş EGEA 1.4 FIRE Niğde 1.9.2026 15:30 1.000 TL
322 2023 Motorsiklet 1290 SUPER ADVENTURE S Ankara 1.9.2026 15:30 1.000 TL
323 2013 Skoda SUPERB 1.6 TDI Yozgat 1.9.2026 15:30 1.000 TL
324 2021 Toyota COROLLA 1.8 HYBRID İstanbul 1.9.2026 15:30 1.000 TL
325 2013 Ford FIESTA 1.25i Bursa 1.9.2026 15:30 1.000 TL
326 2017 Hyundai ACCENT BLUE 1.4 D-CVVT Sakarya 1.9.2026 15:30 1.000 TL
327 2017 Renault SYMBOL 1.5 DCI 90 İzmir 1.9.2026 15:30 1.000 TL
328 1998 Opel CORSA 1.4i Ankara 1.9.2026 15:30 1.000 TL
329 2012 Opel ASTRA HB 1.3 CDTi Antalya 1.9.2026 15:30 1.000 TL
330 2026 Ford TOURNEO COURIER 1.5 ECOBLUE DELUXE Ankara 1.9.2026 15:30 1.000 TL
331 2024 Renault CLIO EVOLUTION 1.0 TCE X-TRONIC Bursa 1.9.2026 15:30 1.000 TL
332 2026 Fiat/Tofaş EGEA 1.6 MJET EASY Samsun 1.9.2026 15:30 1.000 TL
333 2026 Togg T10X V2 RWD UZUN MENZİL İzmir 1.9.2026 15:30 1.000 TL
334 2024 Motorsiklet VESPA NEW GTS SUPERSPORT 310 İstanbul 1.9.2026 15:30 1.000 TL
335 2025 Ford F LİNE Şehir Seç 1.9.2026 15:30 1.000 TL
336 2005 Dorse/Römork CAJA FRİGORİFİK YARI RÖMORK Mersin 1.9.2026 15:30 1.000 TL
337 2010 Fiat/Tofaş FIORINO COMBI 1.3 M.JET Bursa 1.9.2026 15:30 1.000 TL
338 2018 Peugeot KISBEE 50 İzmir 1.9.2026 15:30 1.000 TL
339 2012 Peugeot PARTNER ORIGIN ADVENTURE PACK 1.6 HDI Ankara 1.9.2026 15:30 1.000 TL
340 2024 Motorsiklet MULTISTRADA V2 S Bursa 1.9.2026 15:30 1.000 TL
341 2026 Fiat/Tofaş DAILY KAMYONET 35 C 16 Eskişehir 1.9.2026 15:30 1.000 TL
342 2012 Fiat/Tofaş ALBEA SOLE 1.4 FIRE Şehir Seç 1.9.2026 15:30 1.000 TL
343 2022 Fiat/Tofaş DOBLO COMBI PREMIO PLUS 1.6 MJET Tekirdağ 1.9.2026 15:30 1.000 TL
344 2021 Fiat/Tofaş DOBLO COMBI PREMIO PLUS 1.6 M.JET Konya 1.9.2026 15:30 1.000 TL
345 2017 Volkswagen T.PORTER 4+1 2.0 TDI Denizli 1.9.2026 15:30 1.000 TL
346 2001 Volkswagen POLO 1.6 HIGHLINE Şanlıurfa 1.9.2026 15:30 1.000 TL
347 2019 Citroen C5 AIRCROSS 1.6 PURETECH Ankara 1.9.2026 15:30 1.000 TL
348 2020 Renault MEGANE SEDAN JOY 1.3 TCE Konya 1.9.2026 15:30 1.000 TL
349 2026 Volkswagen CADDY KOMBI 2.0 TDI Bursa 1.9.2026 15:30 1.000 TL
350 2012 Motorsiklet XP 500 Kayseri 1.9.2026 15:30 1.000 TL
351 2025 Ford TOURNEO COURIER 1.5 ECOBLUE Ankara 1.9.2026 15:30 1.000 TL
352 2017 Fiat/Tofaş DOBLO COMBI 1.6 M.JET 105 İstanbul 1.9.2026 15:30 1.000 TL
353 2023 Motorsiklet PESARO 50X Mersin 1.9.2026 15:30 1.000 TL
354 2026 Isuzu NPR 3D KAMYON İstanbul 1.9.2026 15:30 1.000 TL
355 2015 Honda WING-GO İzmir 1.9.2026 15:30 1.000 TL
356 2017 Fiat/Tofaş EGEA 1,3 MULTİJET Konya 1.9.2026 15:30 1.000 TL
357 2016 Bmw 520i Denizli 1.9.2026 15:30 1.000 TL
358 2020 Honda NSC 110 İstanbul 1.9.2026 15:30 1.000 TL
359 2013 Ford TRANSIT CONNECT 1,8 TDCİ Osmaniye 1.9.2026 15:30 1.000 TL
360 2025 Mercedes CEKICI ACTROS Gaziantep 1.9.2026 15:30 1.000 TL
361 2025 Kia EV3 Gaziantep 1.9.2026 15:30 1.000 TL
362 1997 Opel VECTRA 2.0 Antalya 1.9.2026 15:30 1.000 TL
363 2022 Renault MEGANE 1,3 TCE Erzurum 1.9.2026 15:30 1.000 TL
364 2018 Toyota COROLLA 1.6 Van 1.9.2026 15:30 1.000 TL
365 2022 Bmw 320i Hatay 1.9.2026 15:30 1.000 TL
366 2023 Honda CB750 HORNET İstanbul 1.9.2026 15:30 1.000 TL
367 2007 Fiat/Tofaş DOBLO 1.3 MULTIJET ACTIVE Tokat 1.9.2026 15:30 1.000 TL
368 2025 Citroen C4 X 1.2 PURETECH İstanbul 1.9.2026 15:30 1.000 TL
369 2020 Renault CLIO 1.3 TCE Muğla 1.9.2026 15:30 1.000 TL
370 2021 Fiat/Tofaş DOBLO CARGO MAXI 1.6 M.JET Ordu 1.9.2026 15:30 1.000 TL
371 2022 Dacia SANDERO 1.0 TURBO X-TRONIC İstanbul 1.9.2026 15:30 1.000 TL
372 2012 Seat LEON 1.6 TDI Mersin 1.9.2026 15:30 1.000 TL
373 2012 Skoda FABIA 1.2 Ankara 1.9.2026 15:30 1.000 TL
374 2014 Honda PCX 150 Tekirdağ 1.9.2026 15:30 1.000 TL
375 2022 Motorsiklet 50 ZNU EC Muğla 1.9.2026 15:30 1.000 TL
376 2018 Ford TOURNEO COURIER 1.5 TDCI Aydın 1.9.2026 15:30 1.000 TL
377 2016 Motorsiklet YP 250 İzmir 1.9.2026 15:30 1.000 TL
378 2014 Scania CEKICI R400 Kocaeli 1.9.2026 15:30 1.000 TL
379 2024 Bmw iX1 EDRIVE20 Samsun 1.9.2026 15:30 1.000 TL
380 2023 Ford TOURNEO COURIER JOURNEY 1.5 TDCI Kırşehir 1.9.2026 15:30 1.000 TL
381 2020 Ford TOURNEO COURIER 1.5 TDCI Eskişehir 1.9.2026 15:30 1.000 TL
382 2015 Volkswagen CC 1.4 TSI BMT 150 DSG İstanbul 1.9.2026 15:30 1.000 TL
383 2021 Bmw X1 SDRIVE 16d 1.5 (116) Ankara 1.9.2026 15:30 1.000 TL
384 2020 Volkswagen PASSAT 1.6 TDI 120 DSG İstanbul 1.9.2026 15:30 1.000 TL
385 2023 Motorsiklet SAFARI 50 Bursa 1.9.2026 15:30 1.000 TL
386 2015 Fiat/Tofaş 500X POPSTAR 1.6 M.JET Hatay 1.9.2026 15:30 1.000 TL
387 2026 Peugeot RIFTER 1.5 BLUEHDI Ankara 1.9.2026 15:30 1.000 TL
388 2021 Ford TOURNEO COURIER KOMBI 1.5 TDCI Diyarbakır 1.9.2026 15:30 1.000 TL
389 2019 Ford TOURNEO COURIER KOMBI 1.5 TDCI Mersin 1.9.2026 15:30 1.000 TL
390 2020 Toyota C-HR 1.8 HYBRID Muğla 1.9.2026 15:30 1.000 TL
391 2020 Citroen C-ELYSEE 1,5 BLUEHDI Tekirdağ 1.9.2026 15:30 1.000 TL
392 2014 Citroen BERLINGO 1,6 HDI Yalova 1.9.2026 15:30 1.000 TL
393 2013 Mercedes CLA 200 1.6 İstanbul 1.9.2026 15:30 1.000 TL
394 1994 Fiat/Tofaş SAHIN 1.6 Konya 1.9.2026 15:30 1.000 TL
395 2015 Toyota COROLLA 1.33 LIFE Bursa 1.9.2026 15:30 1.000 TL
396 1998 Ford ESCORT SEDAN 1.6 CLX Ankara 1.9.2026 15:30 1.000 TL
397 2013 Peugeot PARTNER TEEPE ACTIVE 1.6 HDI Ankara 1.9.2026 15:30 1.000 TL
398 2017 Fiat/Tofaş FIORINO COMBI EMOTION 1.3 M.JET Antalya 1.9.2026 15:30 1.000 TL
399 2022 Dacia DUSTER 1.3 TURBO Edirne 1.9.2026 15:30 1.000 TL
400 2023 Opel CORSA 1.2 T Manisa 1.9.2026 15:30 1.000 TL
401 2025 Peugeot 2008 1.2 PURETECH İzmir 1.9.2026 15:30 1.000 TL
402 2020 Renault CLIO 1.0 TCE X-TRONIC İstanbul 1.9.2026 15:30 1.000 TL
403 2023 Renault CLIO TECHNO ESPRIT ALPINE 1.0 TCE X-TRONIC 90 İstanbul 1.9.2026 15:30 1.000 TL
404 2024 Motorsiklet GTS Antalya 1.9.2026 15:30 1.000 TL
405 2018 Peugeot PARTNER TEPEE 1.6 BLUEHDİ İstanbul 1.9.2026 15:30 1.000 TL
406 2024 Renault EXPRESS COMBI 1.5 BLUEHDI 95 İstanbul 1.9.2026 15:30 1.000 TL
407 2020 Honda HONDA CRF1100 Hatay 1.9.2026 15:30 1.000 TL
408 2007 Seat CORDOBA STYLANCE 1.4 TDI Erzurum 1.9.2026 15:30 1.000 TL
409 2020 Peugeot 3008 1.5 BLUEHDI Erzurum 1.9.2026 15:30 1.000 TL
410 2011 Iveco DAILY 70 C 17 KARAVAN İstanbul 1.9.2026 15:30 1.000 TL
411 2008 Volkswagen JETTA 1.4 İstanbul 1.9.2026 15:30 1.000 TL
412 2006 Hyundai ACCENT 1.6 ADMIRE İstanbul 1.9.2026 15:30 1.000 TL
413 2017 Skoda FABIA 1.0 TSI Şehir Seç 1.9.2026 15:30 1.000 TL
414 2018 Renault SYMBOL 1.5 DCI İzmir 1.9.2026 15:30 1.000 TL
415 2006 Fiat/Tofaş DOBLO CARGO 1.3 MULTIJET ACTUAL Antalya 1.9.2026 15:30 1.000 TL
416 1995 Fiat/Tofaş TEMPRA SX-A Samsun 1.9.2026 15:30 1.000 TL
417 2008 Fiat/Tofaş DOBLO 1.3 MULTIJET Muş 1.9.2026 15:30 1.000 TL
418 2019 Honda HR-V 1.5 130 Ankara 1.9.2026 15:30 1.000 TL
419 2005 Bmw 520 İ İzmir 1.9.2026 15:30 1.000 TL
420 2017 Honda CRF 250 L RALLY Kocaeli 1.9.2026 15:30 1.000 TL
421 2024 Honda CRF 250 L RALLY Bursa 1.9.2026 15:30 1.000 TL
422 2025 Toyota C-HR 1.8 HYBRID Ankara 1.9.2026 15:30 1.000 TL
423 2025 Motorsiklet AR 50 Ankara 1.9.2026 15:30 1.000 TL
424 2016 Renault FLUENCE 1.5 DCI 110 EDC Kayseri 1.9.2026 15:30 1.000 TL
425 2013 Opel CORSA 1.2i TWINPORT Ağrı 1.9.2026 15:30 1.000 TL
426 2000 Fiat/Tofaş SAHİN 1.6 Antalya 1.9.2026 15:30 1.000 TL
427 2025 Motorsiklet GTR 50 Konya 1.9.2026 15:30 1.000 TL
428 2024 Motorsiklet 125 DRİFT L Konya 1.9.2026 15:30 1.000 TL
429 2022 Motorsiklet GRACE 202 Mardin 1.9.2026 15:30 1.000 TL
430 2023 Motorsiklet NEW LİGHT PRO 125 Antalya 1.9.2026 15:30 1.000 TL
431 2025 Hyundai BAYON 1.0 T-GDI Tekirdağ 1.9.2026 15:30 1.000 TL
432 2021 Bmw 320i İstanbul 1.9.2026 15:30 1.000 TL
433 1999 Fiat/Tofaş SAHIN 1.4 Antalya 1.9.2026 15:30 1.000 TL
434 2014 Nissan QASHQAI 1.6 DCI VISIA X-TRONIC S/S Balıkesir 1.9.2026 15:30 1.000 TL
435 1994 Renault R12 TOROS SW Çanakkale 1.9.2026 15:30 1.000 TL
436 2001 Peugeot 306 1.6 Kahramanmaraş 1.9.2026 15:30 1.000 TL
437 2020 Fiat/Tofaş DOBLO COMBI 1.6 M.JET Konya 1.9.2026 15:30 1.000 TL
438 2012 Renault MASTER KAMYONET Şehir Seç 1.9.2026 15:30 1.000 TL
439 2013 Fiat/Tofaş LINEA 1.3 MULTIJET Bursa 1.9.2026 15:30 1.000 TL
440 2025 Motorsiklet VRS 125 Şehir Seç 1.9.2026 15:30 1.000 TL
441 2025 Fiat/Tofaş EGEA CROSS 1.6 M.JET 130 DCT Afyonkarahisar 1.9.2026 15:30 1.000 TL
442 2010 Renault MEGANE SPORT TOURER PRIVILEGE 1.5DCI 105 Mersin 1.9.2026 15:30 1.000 TL
443 2016 Ford TOURNEO COURIER KOMBI 1.6 TDCI Niğde 1.9.2026 15:30 1.000 TL
444 2023 Motorsiklet NEWLIGHT 125 PRO Şehir Seç 1.9.2026 15:30 1.000 TL
445 2004 Ford FOCUS C MAX 1.6 TDCi GHIA İzmir 1.9.2026 15:30 1.000 TL
446 2013 Hyundai i30 1.6 CRDI İzmir 1.9.2026 15:30 1.000 TL
447 2022 Ford KAMYON 2533 6x2 Kayseri 1.9.2026 15:30 1.000 TL
448 2023 Motorsiklet WİLDCAT 125 Balıkesir 1.9.2026 15:30 1.000 TL
449 2000 Volkswagen POLO 1.6 CLASSİC Bursa 1.9.2026 15:30 1.000 TL
450 2024 Motorsiklet SNAKE 50 Düzce 1.9.2026 15:30 TL
451 2023 Motorsiklet RK 125 R Kayseri 1.9.2026 15:30 1.000 TL
452 1993 Renault BROADWAY 1.4 Kayseri 1.9.2026 15:30 1.000 TL
453 2000 Ford FOCUS 1.6i Aksaray 1.9.2026 15:30 1.000 TL
454 2025 Motorsiklet TERRA 125 Şehir Seç 1.9.2026 15:30 1.000 TL
455 2024 Motorsiklet 250 SR Şehir Seç 1.9.2026 15:30 1.000 TL
456 2023 Renault MEGANE 1.3 TCE Ankara 1.9.2026 15:30 1.000 TL
457 2005 Peugeot PARTNER KOMBİVAN 190 C 1.9D Eskişehir 1.9.2026 15:30 1.000 TL
458 2011 Honda PS 150 Muğla 1.9.2026 15:30 1.000 TL
459 2011 Nissan NAVARA 2.5 Diyarbakır 1.9.2026 15:30 1.000 TL
460 2013 Volkswagen GOLF 1.4 TSI COMFORTLINE Erzurum 1.9.2026 15:30 1.000 TL
461 2012 Ford TRANSIT MINIBUS Şehir Seç 1.9.2026 15:30 1.000 TL
462 2023 Motorsiklet MOCCO 50 Şehir Seç 1.9.2026 15:30 1.000 TL
463 2023 Motorsiklet FRECCIA 150 Şehir Seç 1.9.2026 15:30 1.000 TL
464 2005 Opel CORSA 1.3 CDTİ Aksaray 1.9.2026 15:30 1.000 TL
465 2014 Honda SPACY 110 Şehir Seç 1.9.2026 15:30 1.000 TL
466 2020 Fiat/Tofaş FIORINO COMBI 1.3 M.JET Erzurum 1.9.2026 15:30 1.000 TL
467 2005 Opel VIVARO 1.9 DTi L1H1 Şehir Seç 1.9.2026 15:30 1.000 TL
468 2013 Land Rover RANGE ROVER EVOQUE 2.0 Si4 Afyonkarahisar 1.9.2026 15:30 1.000 TL
469 2011 Fiat/Tofaş PUNTO EVO 1.3 MULTIJET (75) Şehir Seç 1.9.2026 15:30 1.000 TL
470 2025 Fiat/Tofaş EGEA CROSS 1.6 M.JET İstanbul 1.9.2026 15:30 1.000 TL
471 2006 Chevrolet KALOS NB 1.4 SE Bursa 1.9.2026 15:30 1.000 TL
472 2017 Renault SYMBOL 1.5 DCI 75 Diyarbakır 1.9.2026 15:30 1.000 TL
473 2016 Motorsiklet YZF R25 Şehir Seç 1.9.2026 15:30 1.000 TL
474 1990 Fiat/Tofaş DOGAN L Konya 1.9.2026 15:30 1.000 TL
475 2014 Audi A4 2.0 TDI 150 MULTITRONIC PI Sakarya 1.9.2026 15:30 1.000 TL
476 2018 Fiat/Tofaş EGEA 1.3 M.JET 95 İstanbul 1.9.2026 15:30 1.000 TL
477 1990 Mercedes 200 E Ankara 1.9.2026 15:30 1.000 TL
478 2014 Volkswagen JETTA 1.6 TDI (105) Erzincan 1.9.2026 15:30 1.000 TL
479 1991 Nissan SUNNY EX 1,6 Konya 1.9.2026 15:30 1.000 TL
480 2005 Mercedes E 200 Kompressor Ankara 1.9.2026 15:30 1.000 TL
481 2022 Motorsiklet DASH 110i Antalya 1.9.2026 15:30 1.000 TL
482 2021 Seat ARONA 1.0 ECOTSİ 110 DSG Trabzon 1.9.2026 15:30 1.000 TL
483 1999 Mitsubishi L200 CIFT KABIN KAMYONET Zonguldak 1.9.2026 15:30 1.000 TL
484 2011 Peugeot BİPPER KOMBİ 1.4 HDİ OUTDOOR Ankara 1.9.2026 15:30 1.000 TL
485 2017 Renault TRAFİC PANELVAN 1.6 DCİ 115 Mersin 1.9.2026 15:30 1.000 TL
486 1997 Fiat/Tofaş SAHIN 1.4. Ankara 1.9.2026 15:30 1.000 TL
487 2025 Motorsiklet DASH 125 Mardin 1.9.2026 15:30 1.000 TL
488 2018 Skoda SUPERB 1.6 TDI Kahramanmaraş 1.9.2026 15:30 1.000 TL
489 2016 Audi A4 1.4 TFSI Adana 1.9.2026 15:30 1.000 TL
490 2017 Renault MEGANE 1,5 DCİ Edirne 1.9.2026 15:30 1.000 TL
491 2017 Citroen C-ELLYSE 1.6 HDI Gaziantep 1.9.2026 15:30 1.000 TL
492 2011 Ford FOCUS SEDAN 1.6 TDCi Kayseri 1.9.2026 15:30 1.000 TL
493 2010 Ford FIESTA 1.4i TDCi Konya 1.9.2026 15:30 1.000 TL
494 2014 Skoda SUPERB 1.6 TDI Van 1.9.2026 15:30 1.000 TL
495 2023 Fiat/Tofaş EGEA SEDAN 1.3 M.JET Kahramanmaraş 1.9.2026 15:30 1.000 TL
496 2015 Audi A4 1.4 TFSI Eskişehir 1.9.2026 15:30 1.000 TL
497 2020 Peugeot 301 1.5 BLUEHDI İstanbul 1.9.2026 15:30 1.000 TL
498 1999 Fiat/Tofaş SAHIN 1.6 İ.E Hatay 1.9.2026 15:30 1.000 TL
499 2010 Renault SYMBOL AUTHENTIQUE 1.5 DCI 65 İzmir 1.9.2026 15:30 1.000 TL
500 2024 Ford FOCUS 1.5 EcoBlue Eskişehir 1.9.2026 15:30 1.000 TL
501 2024 Renault CLIO 1,0 TCE İstanbul 1.9.2026 15:30 1.000 TL
502 2016 Toyota COROLLA 1.4 D-4D ADVANCE Kayseri 1.9.2026 15:30 1.000 TL
503 2021 Motorsiklet F 900 XR Mersin 1.9.2026 15:30 TL
504 2015 Volkswagen JETTA 1.2 TSI (105) İstanbul 1.9.2026 15:30 1.000 TL
505 2023 Motorsiklet PULSAR RS 200 Antalya 1.9.2026 15:30 1.000 TL
506 2012 Volkswagen GOLF VI 1.6 TDI (90) TRENDLINE Kahramanmaraş 1.9.2026 15:30 1.000 TL
507 2017 Fiat/Tofaş DOBLO COMBI 1.6 M.JET 105 İzmir 1.9.2026 15:30 1.000 TL
508 2006 Volkswagen LT VOLT MINIBUS 2.5 TDI MWB Kocaeli 1.9.2026 15:30 1.000 TL
509 2024 Kgmobılıty TORRES EVX Tekirdağ 1.9.2026 15:30 1.000 TL
510 2011 Renault FLUENCE 1.5 DCI (110) EDC Edirne 1.9.2026 15:30 1.000 TL
511 2014 Toyota HILUX CIFT KABIN KAMYONET 4x2 Diyarbakır 1.9.2026 15:30 1.000 TL
512 2023 Motorsiklet GSX 1300 HAYABUSA Kayseri 1.9.2026 15:30 TL
513 2018 Ford TRANSIT AMBULANS İzmir 1.9.2026 15:30 1.000 TL
514 2007 Hyundai ACCENT ERA 1.6 Bursa 1.9.2026 15:30 1.000 TL
515 2012 Peugeot 508 ACTIVE e HDI 112 Eskişehir 1.9.2026 15:30 1.000 TL
516 1993 Opel VECTRA 2.0 GL Şehir Seç 1.9.2026 15:30 1.000 TL
517 2025 Renault MEGANE SEDAN TOUCH 1.3 TCE İstanbul 1.9.2026 15:30 1.000 TL
518 2022 Iveco S-WAY Mersin 1.9.2026 15:30 1.000 TL
519 2023 Iveco S-WAY Mersin 1.9.2026 15:30 1.000 TL
520 2020 Dacia SANDERO AMBIANCE 1.0 SCE 75 Nevşehir 1.9.2026 15:30 1.000 TL
521 2024 Dorse/Römork ERKONSAN YARI ROMORK Kocaeli 1.9.2026 15:30 1.000 TL
522 2013 Opel ASTRA 1.3 Batman 1.9.2026 15:30 1.000 TL
523 2013 Dorse/Römork TIRSAN YARI ROMORK Kayseri 1.9.2026 15:30 1.000 TL
524 2000 Ford FOCUS 1.6 Balıkesir 1.9.2026 15:30 1.000 TL
525 2024 Fiat/Tofaş DUCATO VAN MAXI 15M3 2.2 140 İstanbul 1.9.2026 15:45 557.500 TL
526 2014 Volkswagen TRANSPORTER CITYVAN 2.0 TDI 102 4+1 İstanbul 1.9.2026 15:45 466.000 TL
527 2006 Renault CEKICI PREMIUM 420.19 4x2 Manisa 1.9.2026 15:45 385.000 TL
528 2014 Peugeot 508 ACTIVE 1.6 E-HDI 115 ETG6 S&S Ankara 1.9.2026 15:45 447.500 TL
529 2018 Opel ASTRA 1.6 NB EDİTİON Ankara 1.9.2026 15:45 448.000 TL
530 2012 Nissan QASHQAI 1.5 DCI VISIA 4x2 Ankara 1.9.2026 15:45 388.000 TL
531 2007 Bmw 318i SEDAN STANDART İstanbul 1.9.2026 15:45 397.500 TL
532 2015 Toyota COROLLA 1.4 D-4D ADVANCE İstanbul 1.9.2026 15:45 510.000 TL
533 2017 Hyundai ACCENT BLUE 1.6 CRDI MODE PLUS DCT İzmir 1.9.2026 15:45 410.000 TL
534 2019 Dacia DUSTER COMFORT 1.5 BLUE DCI 115 4x4 Ankara 1.9.2026 15:45 418.000 TL
535 2006 Mercedes KAMYON ACTROS 3236 B 8x4 Ankara 1.9.2026 15:45 387.000 TL
536 2014 Ford TRANSIT 350M TEK KABIN KAMYONET Bursa 1.9.2026 15:45 452.000 TL
537 2019 Toyota COROLLA 1.6 VISION İstanbul 1.9.2026 15:45 504.500 TL
538 2014 Motorsiklet DUCATI 899 PANIGALE ABS İstanbul 1.9.2026 15:45 400.000 TL
539 2025 Fiat/Tofaş DUCATO VAN MAXI 15M3 2.2 180 AT S2 İstanbul 1.9.2026 15:45 425.000 TL
540 2007 Dodge NITRO R/T 4.0 Ankara 1.9.2026 15:45 475.000 TL
541 2018 Volkswagen T.PORTER CAMLIVAN 4+1 2.0 TDI 150 Kahramanmaraş 1.9.2026 16:00 578.000 TL
542 2018 Skoda OCTAVIA 1.6 TDI CR 115 DSG STYLE Ankara 1.9.2026 16:00 695.000 TL
543 2019 Renault MEGANE SEDAN TOUCH 1.5 BLUEDCI 115 Ankara 1.9.2026 16:00 726.000 TL
544 2025 Renault CLIO EVOLUTION 1.0 TCE X-TRONIC 90 Ankara 1.9.2026 16:00 728.000 TL
545 2015 Opel ASTRA SEDAN 1.6 DIZEL 136 SPORT İstanbul 1.9.2026 16:00 628.000 TL
546 2019 Hyundai i20 FL 1.4 MPI STYLE OV PANORAMA MULTIMEDYA Ankara 1.9.2026 16:00 695.000 TL
547 2016 Bmw 118i 5 KAPI 1.5 (136) Ankara 1.9.2026 16:00 693.000 TL
548 2021 Toyota COROLLA 1.5 DREAM MULTIDRIVE S Ankara 1.9.2026 16:00 742.500 TL
549 2014 Iveco EUROCARGO 150 E Adana 1.9.2026 16:00 736.500 TL
550 2019 Volkswagen GOLF 1.5 TSI ACT 150 DSG COMFORTLINE İstanbul 1.9.2026 16:00 618.000 TL
551 2025 Renault KANGOO MULTIX ICONIC 1.5 B DCI EDC 115 Ankara 1.9.2026 16:00 658.500 TL
552 2019 Renault MEGANE SEDAN ICON 1.5 DCI 110 Ankara 1.9.2026 16:00 659.500 TL
553 2021 Peugeot 208 GT 1.2 PURETECH 130 EAT8 Ankara 1.9.2026 16:00 654.500 TL
554 2024 Opel MOKKA 1.2 130 AT8 GS Ankara 1.9.2026 16:00 621.000 TL
555 2014 Ford KAMYON CARGO 2526 Erzurum 1.9.2026 16:00 736.000 TL
556 2015 Honda CIVIC SEDAN 1.6 125 ELEGANCE ECO (Y) Ankara 1.9.2026 16:00 599.500 TL
557 2026 Honda NSS 250A FORZA Bursa 1.9.2026 16:30 195.500 TL
558 2013 Volkswagen POLO 1.4 85 CHROME EDITION İstanbul 1.9.2026 16:30 1.250 TL
559 2024 Citroen BERLINGO VAN FEEL BOLD 1.5 BLUEHDI 100 FL İstanbul 1.9.2026 16:30 1.000 TL
560 2017 Hyundai i20 1.4 MPI JUMP OV İstanbul 1.9.2026 16:30 26.500 TL
561 2022 Opel CORSA 1.2 130 AT8 ULTIMATE İstanbul 1.9.2026 16:30 251.750 TL
562 2014 Ford KUGA TREND X 1.6 ECOBOOST 150 2WD İstanbul 1.9.2026 16:30 1.000 TL
563 2025 Opel CORSA 1.2 HYBRID 110 (100) E-DCT6 EDITION İstanbul 1.9.2026 16:30 1.000 TL
564 2013 Renault MEGANE HB TOUCH 1.6 16V 115 CVT İstanbul 1.9.2026 16:30 1.000 TL
565 2025 Byd SEAL U DM-i İstanbul 1.9.2026 16:30 1.000 TL
566 2025 Opel COMBO CARGO 1.5 DIZEL MT6 130 ULTIMATE XL FL İstanbul 1.9.2026 16:30 1.000 TL
567 2011 Renault KANGOO MULTIX PRIVILEGE CHRO.1.5 DCI 105 İstanbul 1.9.2026 16:30 1.000 TL
568 2019 Volkswagen CARAVELLE COMFORTLINE 2.0TDI 150 8+1 SWB İstanbul 1.9.2026 16:30 1.000 TL
569 2025 Byd ATTO 2 130KW BOOST İstanbul 1.9.2026 16:30 1.000 TL
570 2013 Citroen C3 PICASSO 1.6 e-HDI 92 CONFORT BMP6 STT İstanbul 1.9.2026 16:30 1.000 TL
571 2025 Fiat/Tofaş DUCATO VAN MAXI 17M3 2.2 140 İstanbul 1.9.2026 16:30 1.000 TL
572 2021 Man CEKICI TGX 18.470 4x2 BL SA UY GM E6D İstanbul 1.9.2026 16:30 1.000 TL
573 2023 Ford TRANSIT KAMYONET Bitlis 1.9.2026 16:30 606.500 TL
574 2023 Fiat/Tofaş DUCATO MINIBUS DELUX OKUL 16+1 140 Kocaeli 1.9.2026 16:30 1.000 TL
575 2012 Geely EMGRAND EC7 1.5 SEDAN Erzurum 1.9.2026 16:30 1.000 TL
576 2025 Opel ZAFIRA LİFE 2.0 180 ULTIMATE XL AT8 Erzurum 1.9.2026 16:30 1.000 TL
577 2021 Ford CARGO 1842T Adana 1.9.2026 16:30 1.000 TL
578 2022 Nissan JUKE 1.0 DIG-T 115 DCT TEKNA Balıkesir 1.9.2026 16:30 1.000 TL
579 2023 Mg HS LUXURY 1.5T AT İstanbul 1.9.2026 16:30 1.000 TL
580 2025 Citroen E-C3 MAX 83KW İstanbul 1.9.2026 16:30 1.000 TL
581 2018 Ford RANGER XLT 2.2 TDCI 160 E6 6A/T Karaman 1.9.2026 16:30 1.000 TL
582 2018 Volkswagen POLO 1.0 TSI 95 HIGHLINE DSG İstanbul 1.9.2026 16:30 120.000 TL
583 2025 Ford TOURNEO COURIER 1.0 P 125 AT TITANIUM Denizli 1.9.2026 16:30 1.000 TL
584 2022 Ford CEKICI CARGO 1842T Mardin 1.9.2026 16:30 1.000 TL
585 2023 Renault CLIO EQUILIBRE 1.0 TCE X-TRONIC 90 İstanbul 1.9.2026 16:30 1.000 TL
586 2020 Opel ASTRA HB 1.2 110 MT6 EDITION Eskişehir 1.9.2026 16:30 250 TL
587 2025 Volvo XC90 T8 AWD P.HYBRID PLUS BRIGHT 310+145 G. İstanbul 1.9.2026 16:30 2.250.500 TL
588 2024 Fiat/Tofaş EGEA SEDAN EASY 1.3 M.JET 95 E6D İstanbul 1.9.2026 16:30 350.000 TL
589 2020 Fiat/Tofaş EGEA HB STREET 1.4 FIRE E6D Bursa 1.9.2026 16:30 10.000 TL
590 2024 Opel GRANDLAND 1.2 İzmir 1.9.2026 16:30 1.000 TL
591 2026 Opel COMBO 1,5 D Ankara 1.9.2026 16:30 203.000 TL
592 2024 Bmw R 1300 GS Mersin 1.9.2026 16:30 486.000 TL
593 2017 Fiat/Tofaş EGEA 1,6 MULTİJET İzmir 1.9.2026 16:30 1.000 TL
594 2023 Motorsiklet WİNG 50İ Muğla 1.9.2026 16:30 1.000 TL
595 2020 Honda CB 125 F Trabzon 1.9.2026 16:30 1.000 TL
596 1998 Fiat/Tofaş TIPO 1.4 S Afyonkarahisar 1.9.2026 16:30 1.000 TL
597 2022 Ford CEKICI F-MAX Konya 1.9.2026 16:30 1.000 TL
598 2025 Fiat/Tofaş EGEA 1,6 MULTİJET İstanbul 1.9.2026 16:30 1.000 TL
599 2021 Audi A3 1,5 Mersin 1.9.2026 16:30 1.000 TL
600 2017 Toyota COROLLA 1.6 Kayseri 1.9.2026 16:30 1.000 TL
601 2021 Volkswagen TIGUAN 1.5 TSI İstanbul 1.9.2026 16:30 1.000 TL
602 1993 Fiat/Tofaş UNO S Afyonkarahisar 1.9.2026 16:30 1.000 TL
603 2023 Motorsiklet APRILIA RS 660 İstanbul 1.9.2026 16:30 500 TL
604 2022 Renault CLIO 1,0 TCE Ankara 1.9.2026 16:30 1.000 TL
605 2015 Volkswagen PASSAT 1.6 TDI BMT Çorum 1.9.2026 16:30 500 TL
606 2024 Honda ADV 350A Bursa 1.9.2026 16:30 46.000 TL
607 2022 Motorsiklet 250 NK Kahramanmaraş 1.9.2026 16:30 1.500 TL
608 2015 Volkswagen GOLF 1.2 TSI Bursa 1.9.2026 16:30 500 TL
609 2005 Ford FOCUS 1.6 GHIA Ankara 1.9.2026 16:30 1.000 TL
610 2005 Toyota COROLLA 1.6 Çanakkale 1.9.2026 16:30 1.000 TL
611 2016 Peugeot 301 1,6 HDI Sakarya 1.9.2026 16:30 100.000 TL
612 2026 Renault KANGOO VAN 1,5 İstanbul 1.9.2026 16:30 1.000 TL
613 2023 Skoda SUPERB 1.5 TSI Sivas 1.9.2026 16:30 400.500 TL
614 2015 Fiat/Tofaş DOBLO COMBI 1.3 M.JET Sivas 1.9.2026 16:30 1.000 TL
615 2002 Hyundai ACCENT 1.3 LX Niğde 1.9.2026 16:30 1.000 TL
616 2017 Volkswagen GOLF 1.4 TSI Muğla 1.9.2026 16:30 100.000 TL
617 2014 Mercedes SPRINTER 316 CDI 16+1 İstanbul 1.9.2026 16:30 1.000 TL
618 1999 Renault R9 BRODWAY 1,4 RN Adana 1.9.2026 16:30 1.000 TL
619 2024 Hyundai i20 1.0 T-GDI Trabzon 1.9.2026 16:30 300.000 TL
620 2023 Ford TRANSIT COURIER 1,5 TDCİ Bursa 1.9.2026 16:30 1.000 TL
621 2023 Dacia SPRING EXTREME ELEKTRIC 65 Ankara 1.9.2026 16:30 1.000 TL
622 2011 Hyundai i20 TROY 1.4 CRDi MODE (Y) Kocaeli 1.9.2026 16:30 1.000 TL
623 2023 Renault EXPRESS VAN JOY 1.5 BLUEDCI 95 D-FULL İstanbul 1.9.2026 16:30 1.000 TL
624 2016 Dacia DUSTER AMBIANCE 4x4 1.5 DCI 110 Ankara 1.9.2026 16:30 1.000 TL
625 2016 Mercedes C 180 1.6 AMG İstanbul 1.9.2026 16:30 1.000.000 TL
626 2024 Toyota C-HR 1.8 (140) HYBRID PASSION E-CVT Kayseri 1.9.2026 16:30 305.000 TL
627 2018 Motorsiklet CELIK CM100 Mersin 1.9.2026 16:30 500 TL
628 2022 Motorsiklet RKS SPONTINI 110 Çanakkale 1.9.2026 16:30 500 TL
629 2024 Cupra FORMENTOR 1.5 E-TSI MHEV 150 DSG VZ LINE İstanbul 1.9.2026 16:30 2.500 TL
630 2019 Motorsiklet YAMAHA XMAX 250 Ankara 1.9.2026 16:30 1.000 TL
631 2023 Toyota HILUX 2.4 D-4D 150 4X4 ADVENTURE A/T Kayseri 1.9.2026 16:30 160.000 TL
632 2025 Motorsiklet REVOLT RSX7 125 İstanbul 1.9.2026 16:30 500 TL
633 2017 Opel ASTRA NB 1.6 DIZEL 136 AT ELITE İstanbul 1.9.2026 16:30 2.500 TL
634 2015 Audi A1 SPORT 1.6 TDI Gaziantep 1.9.2026 16:30 5.000 TL
635 2017 Nissan JUKE 1.6 SPECIAL EDITION CVT İstanbul 1.9.2026 16:30 1.000 TL
636 2023 Motorsiklet FALCON MASTER 50 Sakarya 1.9.2026 16:30 1.000 TL
637 2023 Ford TOURNEO CUSTOM 320S UPGRADE 170 TITANIUM PLUS Muğla 1.9.2026 16:30 3.000 TL
638 2013 Motorsiklet HONDA CBR 250 R Hatay 1.9.2026 16:30 1.000 TL
639 2006 Toyota COROLLA 1.6 SOL SEDAN (Y) Kayseri 1.9.2026 16:30 500 TL
640 1999 Fiat/Tofaş DOGAN 1.6 Adıyaman 1.9.2026 16:30 500 TL
641 2024 Ssangyong MUSSO GRAND D2. 2 4X2 AT PLATINUM PLUS Trabzon 1.9.2026 16:30 5.500 TL
642 2023 Motorsiklet BAJAJ PULSAR NS 125 ABS Bursa 1.9.2026 16:30 500 TL
643 1993 Fiat/Tofaş SAHIN 5 VITES Niğde 1.9.2026 16:30 1.000 TL
644 1996 Fiat/Tofaş TEMPRA SX Ankara 1.9.2026 16:30 16.000 TL
645 2023 Volvo S60 B5 AWD PLUS BRIGHT 2.0 250 GEARTRONIC İstanbul 1.9.2026 16:30 451.000 TL
646 2019 Motorsiklet MONDIAL 50 REVIVAL İstanbul 1.9.2026 16:30 500 TL
647 2015 Isuzu NLR Tekirdağ 1.9.2026 16:30 1.500 TL
648 2000 Fiat/Tofaş SIENA 1.4 EL İstanbul 1.9.2026 16:30 500 TL
649 2010 Isuzu D-MAX CIFT KABIN KAMYONET 4X2 Sivas 1.9.2026 16:30 1.500 TL
650 2024 Kia EV3 204 AT ELEKTRIK PRESTIGE LONG RANGE İstanbul 1.9.2026 16:30 150.500 TL
651 2022 Motorsiklet RKS SPONTINI 110 (GST110T-14) Tekirdağ 1.9.2026 16:30 1.000 TL
652 2024 Jaecoo 7 1.6 145 REVIVE DCT Ankara 1.9.2026 16:30 1.097.500 TL
653 2021 Volkswagen TIGUAN 1.5 TSI ACT 150 DSG ELEGANCE İstanbul 1.9.2026 16:30 1.312.000 TL
654 2014 Isuzu NPR 3D KAMYON Ankara 1.9.2026 16:30 798.500 TL
655 2026 Dacia SANDERO STEPWAY EXTREME ECO-G 120 AUTO İstanbul 1.9.2026 16:30 948.000 TL
656 2024 Dacia SANDERO STEPWAY EXPRESSION TCE 90 CVT Ankara 1.9.2026 16:30 791.500 TL
657 2023 Bmw 320i SEDAN 1.6 170 SPORT LINE İstanbul 1.9.2026 16:30 1.885.000 TL
658 2026 Ford TRANSIT VAN 350E İstanbul 1.9.2026 16:30 828.000 TL
659 2023 Ford KUGA STYLE 1.5 ECOBOOST 182 8AT E6.2 Ankara 1.9.2026 16:30 770.500 TL
660 2025 Fiat/Tofaş EGEA CROSS LOUNGE 1.6 M.JET 130 İstanbul 1.9.2026 16:30 744.500 TL
661 2025 Fiat/Tofaş EGEA CROSS STREET 1.6 M.JET130DCTGSR TRAC+ İstanbul 1.9.2026 16:30 745.000 TL
662 2025 Volvo ÇEKİCİ FH 500 İstanbul 1.9.2026 16:30 3.036.000 TL
663 2025 Volkswagen TIGUAN 1.5 eTSI ACT 150 DSG R-LINE Ankara 1.9.2026 16:30 1.614.000 TL
664 2011 Audi A7 SPORTBACK 3.0 TFSI (300) QUATTRO STRO İstanbul 1.9.2026 16:30 1.614.000 TL
665 2021 Motorsiklet DUCATI SUPERSPORT İstanbul 1.9.2026 16:30 837.500 TL
666 2025 Mercedes C 43 AMG 4 MATIC Ankara 1.9.2026 16:30 4.918.000 TL
667 2018 Audi Q5 2.0 TFSI QUATTRO 256 Ankara 1.9.2026 16:30 812.000 TL
668 2026 Motorsiklet BMW S 1000 RR Ankara 1.9.2026 16:30 744.000 TL
669 2008 Hyundai ACCENT ERA 1.5 CRDi VGT Şanlıurfa 1.9.2026 16:30 1.000 TL
670 2011 Mercedes SPRINTER 515 CDI MINIBUS Mersin 1.9.2026 16:30 1.000 TL
671 2016 Renault KANGOO EXPRESS CARGO MAXI 1.5 DCI İstanbul 1.9.2026 16:30 3.000 TL
672 2024 Motorsiklet NTORQ 125 Kayseri 1.9.2026 16:30 1.000 TL
673 2017 Renault MEGANE SEDAN 1.5 DCI Iğdır 1.9.2026 16:30 1.000 TL
674 2020 Honda SPACY ALPHA İzmir 1.9.2026 16:30 1.000 TL
675 2007 Ford C-MAX 1.6 TDCİ TREND 5 KAPI Denizli 1.9.2026 16:30 500 TL
676 2021 Motorsiklet REVIVAL 50 Tokat 1.9.2026 16:30 1.000 TL
677 2024 Motorsiklet CRV 125 İstanbul 1.9.2026 16:30 1.000 TL
678 2004 Hyundai ACCENT 1.3 ADMIRE (Y) Adana 1.9.2026 16:30 1.000 TL
679 2003 Skoda FABIA 1.4 Kayseri 1.9.2026 16:30 1.000 TL
680 2019 Honda SPACY ALPHA İzmir 1.9.2026 16:30 1.000 TL
681 2004 Fiat/Tofaş DOBLO 1.9 JTD Adana 1.9.2026 16:30 500 TL
682 2019 Honda CIVIC SEDAN 1.6i VTEC Kocaeli 1.9.2026 16:30 1.000 TL
683 2006 Volkswagen TRANSPORTER CITYVAN 1.9 TDI Antalya 1.9.2026 16:30 1.000 TL
684 2019 Motorsiklet NEO'S İstanbul 1.9.2026 16:30 1.000 TL
685 2014 Renault SYMBOL JOY 1.5 DCI Ankara 1.9.2026 16:30 265.200 TL
686 2021 Hyundai i20 1.4 MPI Uşak 2.9.2026 15:15 1.000 TL
687 2019 Renault MEGANE SEDAN 1.5 DCI İstanbul 2.9.2026 15:15 1.000 TL
688 2017 Kia CEED 1.4 Balıkesir 2.9.2026 15:15 1.000 TL
689 2017 Renault MEGANE SEDAN JOY 1.6 Ankara 2.9.2026 15:15 1.000 TL
690 2022 Kia PICANTO 1.0 İstanbul 2.9.2026 15:15 1.000 TL
691 2019 Mercedes E 200 D İstanbul 2.9.2026 15:15 1.380.000 TL
692 2017 Hyundai i20 1.4 MPI JUMP OV Gaziantep 2.9.2026 15:15 341.100 TL
693 2013 Citroen C3 1.4 E-HDI CONFORT İstanbul 2.9.2026 15:15 1.000 TL
694 2016 Kia SOUL PREMIUM 1.6 CRDI İstanbul 2.9.2026 15:15 10.000 TL
695 2022 Ford KUGA 1.5 ECOBLUE Ankara 2.9.2026 15:15 50.000 TL
696 2024 Ford TOURNEO COURIER 1.5 DİZEL Erzurum 2.9.2026 15:15 1.000 TL
697 2011 Volkswagen CADDY KOMBI 1.9 TDI Van 2.9.2026 15:15 1.000 TL
698 2013 Citroen JUMPER MINIBUS 2.2 HDI 16+1 Tekirdağ 2.9.2026 15:15 500 TL
699 2023 Opel MOKKA 1.2 Van 2.9.2026 15:15 1.000 TL
700 2023 Fiat/Tofaş EGEA SEDAN 1.3 M.JET İstanbul 2.9.2026 15:15 1.000 TL
701 2016 Volkswagen PASSAT 1.6 TDI BMT Bolu 2.9.2026 15:15 1.500 TL
702 2022 Hyundai TUCSON 1.6 T-GDI Ankara 2.9.2026 15:15 1.000 TL
703 2006 Isuzu NPR KAMYON Osmaniye 2.9.2026 15:15 5.000 TL
704 2020 Renault CAPTUR 1.3 TCE Eskişehir 2.9.2026 15:15 1.000 TL
705 2012 Dacia DUSTER 1.5 DCI Çanakkale 2.9.2026 15:15 5.000 TL
706 2023 Toyota YARIS CROSS 1.5 Erzurum 2.9.2026 15:15 1.000 TL
707 2016 Volkswagen JETTA 1.4 TSI BMT Samsun 2.9.2026 15:15 1.000 TL
708 2013 Volkswagen GOLF 1.2 TSI Antalya 2.9.2026 15:15 500 TL
709 2013 Hyundai İX35 1.6 GDI İzmir 2.9.2026 15:15 1.000 TL
710 2010 Honda JAZZ 1.4 İzmir 2.9.2026 15:15 1.000 TL
711 2025 Toyota YARIS CROSS 1.5 HYBRID İzmir 2.9.2026 15:15 1.000 TL
712 2012 Toyota COROLLA SEDAN 1.4D-4D Kocaeli 2.9.2026 15:15 386.500 TL
713 2023 Fiat/Tofaş EGEA SEDAN EASY 1.3 M.JET Ankara 2.9.2026 15:15 6.500 TL
714 2011 Ford CEKICI CARGO 1838T 4X2 Şırnak 2.9.2026 15:15 1.500 TL
715 2016 Nissan MICRA 1.2 Mardin 2.9.2026 15:15 46.500 TL
716 2001 Renault CLIO SYMBOL 1.4 Ankara 2.9.2026 15:15 85.000 TL
717 2013 Fiat/Tofaş LINEA 1.4 FİRE Malatya 2.9.2026 15:15 1.000 TL
718 2018 Mercedes VITO TOURER 111 BLUETEC Muğla 2.9.2026 15:15 1.000 TL
719 2012 Opel ASTRA SEDAN 1.3 CDTI İstanbul 2.9.2026 15:15 1.000 TL
720 2009 Peugeot 207 1.6 HDI İstanbul 2.9.2026 15:15 1.000 TL
721 2016 Skoda SUPERB ACTIVE 1.4 TSI Ankara 2.9.2026 15:15 1.000 TL
722 2022 Skoda KAMIQ 1.0 TSI İstanbul 2.9.2026 15:15 5.000 TL
723 2020 Skoda FABIA 1.0 TSI İstanbul 2.9.2026 15:15 1.000 TL
724 2026 Volkswagen TAIGO 1.0 TSI Adana 2.9.2026 15:15 1.000 TL
725 2011 Renault FLUENCE 1.5 DCI Samsun 2.9.2026 15:15 1.000 TL
726 2018 Peugeot 301 ACTIVE 1.6 BLUEHDI 100 Kayseri 2.9.2026 15:30 1.000 TL
727 2016 Seat LEON 1.4 TSI Ankara 2.9.2026 15:30 1.000 TL
728 2025 Citroen C4 MAX 1.2 PURETECH 130 EAT8 Çanakkale 2.9.2026 15:30 1.000 TL
729 2007 Renault CLIO SYMBOL 1.5 DCI Adana 2.9.2026 15:30 1.000 TL
730 2026 Toyota COROLLA HYBRID 1.8 DREAM E-CVT FL İzmir 2.9.2026 15:30 1.000 TL
731 2021 Mitsubishi L200 CIFT KABIN KAMYONET 2.2 4x4 STORM MT Ankara 2.9.2026 15:30 1.000 TL
732 2006 Ford T. CONNECT KOMBI K210S 1.8 TDCi Ordu 2.9.2026 15:30 1.000 TL
733 2013 Fiat/Tofaş FIORINO COMBI 1.3 M.JET 75 E5 POP Elazığ 2.9.2026 15:30 1.000 TL
734 2010 Volkswagen CADDY KOMBI 1.9 TDI Diyarbakır 2.9.2026 15:30 1.000 TL
735 2011 Opel MERIVA 1.4 ENJOY Çorum 2.9.2026 15:30 1.000 TL
736 2008 Suzuki SWIFT 1.3 Ankara 2.9.2026 15:30 1.000 TL
737 2024 Kia PICANTO FEEL 1.0 Aydın 2.9.2026 15:30 1.000 TL
738 2023 Dacia DUSTER 1.3 TCE Giresun 2.9.2026 15:30 1.000 TL
739 2007 Toyota COROLLA 1.4 D 4D SOL HB Afyonkarahisar 2.9.2026 15:30 1.000 TL
740 2015 Volkswagen JETTA 1.6 TDI TRENDLINE Kocaeli 2.9.2026 15:30 1.000 TL
741 2025 Motorsiklet QUANTUM 50 Ankara 2.9.2026 15:30 1.000 TL
742 1994 Renault R 1339 Elazığ 2.9.2026 15:30 1.000 TL
743 2023 Motorsiklet RSV4 1100 İstanbul 2.9.2026 15:30 1.000 TL
744 2018 Renault KANGOO MULTIX 1.5 DCI İstanbul 2.9.2026 15:30 1.000 TL
745 2024 Fiat/Tofaş FIORINO COMBI 1.3 M.JET Düzce 2.9.2026 15:30 1.000 TL
746 2020 Dacia DUSTER 1.5 BLUEDCI Mersin 2.9.2026 15:30 1.000 TL
747 2025 Fiat/Tofaş EGEA SEDAN 1.4 FIRE İstanbul 2.9.2026 15:30 1.000 TL
748 2011 Hyundai i20 1.4 Kocaeli 2.9.2026 15:30 1.000 TL
749 2018 Ford TRANSIT CUSTOM VAN İstanbul 2.9.2026 15:30 1.000 TL
750 2007 Opel COMBO 1.3 CDTi Ordu 2.9.2026 15:30 1.000 TL
751 2011 Ford FOCUS HB COLLECTION 1.6 TDCi Trabzon 2.9.2026 15:30 1.000 TL
752 2021 Ford TOURNEO COURIER KOMBI 1.5 TDCI 75 Diyarbakır 2.9.2026 15:30 1.000 TL
753 2017 Bmw 520i SEDAN 1.6 170 İzmir 2.9.2026 15:30 1.000 TL
754 2013 Honda CIVIC SEDAN 1.6 125 Gaziantep 2.9.2026 15:30 1.000 TL
755 2023 Motorsiklet Benellı 125S İstanbul 2.9.2026 15:30 TL
756 2025 Ford FOCUS 1.5 ECOBLUE İzmir 2.9.2026 15:30 1.000 TL
757 2023 Ford TOURNEO COURIER KOMBI 1.5 TDCI 100 Diyarbakır 2.9.2026 15:30 1.000 TL
758 2025 Peugeot 408 ALLURE 1.2 PURETECH 130 İstanbul 2.9.2026 15:30 1.000 TL
759 2026 Opel CORSA HB HYBRID 1.2 Ankara 2.9.2026 15:30 1.000 TL
760 2024 Renault MEGANE SEDAN 1.3 TCE İzmir 2.9.2026 15:30 1.000 TL
761 2026 Renault AUSTRAL 1.3 TCE İzmir 2.9.2026 15:30 1.000 TL
762 2024 Dacia DUSTER 1.3 TCE Samsun 2.9.2026 15:30 1.000 TL
763 2025 Iveco 35 C 16 İzmir 2.9.2026 15:30 1.000 TL
764 2022 Honda JAZZ 1.5 İstanbul 2.9.2026 15:30 1.000 TL
765 2020 Opel CORSA 1.2 Bursa 2.9.2026 15:30 1.000 TL
766 2016 Volkswagen POLO 1.2 TSI BMT Malatya 2.9.2026 15:30 1.000 TL
767 2015 Ford KUGA 1.5 ECOBOOST Muğla 2.9.2026 15:30 1.000 TL
768 2017 Toyota AURIS 1.33 İzmir 2.9.2026 15:30 1.000 TL
769 2016 Fiat/Tofaş EGEA 1,6 MULTİJET Antalya 2.9.2026 15:30 1.000 TL
770 2019 Dacia SANDERO 0.9 Antalya 2.9.2026 15:30 1.000 TL
771 2024 Honda PCX 125 Bursa 2.9.2026 15:30 1.000 TL
772 2022 Toyota COROLLA 1.5 SEDAN Şanlıurfa 2.9.2026 15:30 1.000 TL
773 2015 Ford TOURNEO COURIER KOMBI 1.6 TDCI Konya 2.9.2026 15:30 1.000 TL
774 2004 Volkswagen POLO 1.4 TDI BASICLINE Şehir Seç 2.9.2026 15:30 1.000 TL
775 2025 Motorsiklet Musattı GLAMARO MAX 125 Ankara 2.9.2026 15:30 TL
776 2023 Toyota COROLLA CROSS 1.8 HYBRID Ankara 2.9.2026 15:30 1.000 TL
777 2024 Motorsiklet AROME 125 PRO Kocaeli 2.9.2026 15:30 1.000 TL
778 2011 Ford FOCUS 1.6i HB Kütahya 2.9.2026 15:30 1.000 TL
779 2012 Volkswagen CC 1.4 TSI 160 TIPTRONIC DSG Bursa 2.9.2026 15:30 1.000 TL
780 2025 Opel CORSA-E GS Kayseri 2.9.2026 15:30 1.000 TL
781 2017 Renault KADJAR BLACK EDITION 1.5 DCI Sivas 2.9.2026 15:30 1.000 TL
782 1996 Toyota COROLLA 1.6 XEi Kahramanmaraş 2.9.2026 15:30 1.000 TL
783 2020 Renault CLIO 1.0 Sivas 2.9.2026 15:30 1.000 TL
784 2026 Citroen BERLINGO 1.5 BLUEHDI İstanbul 2.9.2026 15:30 1.000 TL
785 2011 Nissan NAVARA 2.5 D Adana 2.9.2026 15:30 1.000 TL
786 2008 Volkswagen CADDY KOMBI 1.9 TDI İstanbul 2.9.2026 15:30 1.000 TL
787 2021 Motorsiklet M108S Bartın 2.9.2026 15:30 1.000 TL
788 2025 Motorsiklet 450 NK Şehir Seç 2.9.2026 15:30 1.000 TL
789 1993 Fiat/Tofaş DOGAN SL Kütahya 2.9.2026 15:30 1.000 TL
790 2025 Opel COMBO 1.5 DIZEL Gaziantep 2.9.2026 15:30 1.000 TL
791 2006 Renault CLIO 1.2 Ordu 2.9.2026 15:30 1.000 TL
792 2022 Dacia SANDERO 1,0 TCE Samsun 2.9.2026 15:30 1.000 TL
793 2025 Opel COMBO 1,5 Kayseri 2.9.2026 15:30 1.000 TL
794 2011 Renault SYMBOL 1.5 DCI İzmir 2.9.2026 15:30 1.000 TL
795 2023 Ford TRANSIT COURIER VAN 1.5 TDCI İstanbul 2.9.2026 15:30 1.000 TL
796 2014 Renault FLUENCE TOUCH 1.5 DCI Sivas 2.9.2026 15:30 1.000 TL
797 2014 Volkswagen CADDY KOMBI 1.6 TDI (102) Van 2.9.2026 15:30 1.000 TL
798 2026 Motorsiklet RSX5 150 Şehir Seç 2.9.2026 15:30 1.000 TL
799 2006 Citroen BERLINGO 1.6 HDI Giresun 2.9.2026 15:30 1.000 TL
800 2025 Motorsiklet PULSAR NS 125 ABS İstanbul 2.9.2026 15:30 1.000 TL
801 2007 Volkswagen JETTA 1.6 PRIMELINE Şanlıurfa 2.9.2026 15:30 1.000 TL
802 2021 Mercedes ACTROS 1848 LS İstanbul 2.9.2026 15:30 1.000 TL
803 2020 Citroen C3 AIRCROSS 1.2 PURETECH Kayseri 2.9.2026 15:30 1.000 TL
804 2012 Bmw 320d SEDAN Kocaeli 2.9.2026 15:30 1.000 TL
805 2024 Opel CORSA 1.2 İzmir 2.9.2026 15:30 1.000 TL
806 2023 Nissan JUKE 1.0 DIG-T DCT TEKNA İzmir 2.9.2026 15:30 1.000 TL
807 2023 Motorsiklet JUPİTER 110 Manisa 2.9.2026 15:30 1.000 TL
808 2012 Fiat/Tofaş LINEA 1.6 MULTIJET EMOTİON Erzincan 2.9.2026 15:30 1.000 TL
809 2021 Toyota COROLLA 1.5 İstanbul 2.9.2026 15:30 1.000 TL
810 2013 Bmw 320i ED İstanbul 2.9.2026 15:30 1.000 TL
811 2020 Dacia SANDERO AMBIANCE 1.0 İstanbul 2.9.2026 15:30 1.000 TL
812 2022 Mercedes CLA 200 4MATIC 1.33 Kocaeli 2.9.2026 15:30 1.000 TL
813 2020 Fiat/Tofaş FIORINO 1.3 M.JET Bursa 2.9.2026 15:30 1.000 TL
814 2024 Fiat/Tofaş DOBLO COMBI EASY 1.5 BLUEHDI İstanbul 2.9.2026 15:30 1.000 TL
815 2009 Ford T.CONNECT KOMBI 1.8 TDCi Samsun 2.9.2026 15:30 1.000 TL
816 1998 Fiat/Tofaş ŞAHİN 1.6 Osmaniye 2.9.2026 15:30 1.000 TL
817 2006 Fiat/Tofaş ALBEA 1.6 DYNAMIC Adana 2.9.2026 15:30 1.000 TL
818 2010 Motorsiklet X CITY 250 Bursa 2.9.2026 15:30 1.000 TL
819 2015 Dacia DOKKER VAN AMBIANCE 1.5 DCI Ankara 2.9.2026 15:30 1.000 TL
820 2023 Honda NSC 110 Antalya 2.9.2026 15:30 1.000 TL
821 2025 Motorsiklet MOJİTO 50 Ankara 2.9.2026 15:30 1.000 TL
822 1996 Fiat/Tofaş TIPO SLX Bolu 2.9.2026 15:30 1.000 TL
823 2006 Land Rover RANGE ROVER SPORT 4.2 SC Ankara 2.9.2026 15:30 1.000 TL
824 2023 Motorsiklet 125 R İzmir 2.9.2026 15:30 1.000 TL
825 2024 Renault AUSTRAL 1.3 HYBRID Kocaeli 2.9.2026 15:30 1.000 TL
826 1998 Renault EUROPA 1.4 RNA Trabzon 2.9.2026 15:30 1.000 TL
827 2001 Peugeot PARTNER 1.9D Konya 2.9.2026 15:30 1.000 TL
828 2022 Ford PUMA 1.0 ECOBOOST 125 Trabzon 2.9.2026 15:30 1.000 TL
829 2005 Hyundai ACCENT 1.3 ADMIRE İstanbul 2.9.2026 15:30 1.000 TL
830 2024 Motorsiklet TVS NTORQ 125 Ankara 2.9.2026 15:30 1.000 TL
831 2013 Mercedes KAMYON AXOR 4140 B Samsun 2.9.2026 15:30 1.000 TL
832 2006 Ford FIESTA 1.4 TDCİ COMFORT Aydın 2.9.2026 15:30 1.000 TL
833 2023 Honda DIO Aydın 2.9.2026 15:30 1.000 TL
834 2013 Mercedes KAMYON AXOR 4140 B Samsun 2.9.2026 15:30 1.000 TL
835 2011 Citroen BERLINGO COMBI 1.6 HDI Eskişehir 2.9.2026 15:30 1.000 TL
836 2025 Chery TIGGO 8 İstanbul 2.9.2026 15:30 1.000 TL
837 2023 Toyota COROLLA 1.5 SEDAN Adana 2.9.2026 15:30 1.000 TL
838 2012 Ford C MAX 1.6 TDCi İzmir 2.9.2026 15:30 1.000 TL
839 2004 Ford TRANSIT CONNECT K210 S Antalya 2.9.2026 15:30 1.000 TL
840 2013 Fiat/Tofaş PUNTO 1.3 MULTIJET İstanbul 2.9.2026 15:30 1.000 TL
841 2021 Honda PCX 125 İstanbul 2.9.2026 15:30 1.000 TL
842 2012 Volkswagen POLO GTI 1.4 TSI (180) TIPTRONIC DSG İstanbul 2.9.2026 15:30 1.000 TL
843 2019 Renault MEGANE SEDAN 1.5 DCI 110 Giresun 2.9.2026 15:30 1.000 TL
844 2015 Motorsiklet XEVO 250 İstanbul 2.9.2026 15:30 1.000 TL
845 2006 Renault MEGANE II HB AUTHENTIQUE 1.4 16V Ankara 2.9.2026 15:30 1.000 TL
846 2025 Motorsiklet VOGE 125-R İstanbul 2.9.2026 15:30 1.000 TL
847 2012 Renault SYMBOL 1.2 16V 75 Şehir Seç 2.9.2026 15:30 1.000 TL
848 2002 Opel ASTRA 1.6 HB COMFORT Nevşehir 2.9.2026 15:30 1.000 TL
849 2019 Ford TOURNEO COURIER JOURNEY 1.5 TDCI Antalya 2.9.2026 15:30 1.000 TL
850 2010 Toyota YARIS 1.33 SOL Sakarya 2.9.2026 15:30 1.000 TL
851 2018 Renault SYMBOL 1.5 DCI İzmir 2.9.2026 15:30 1.000 TL
852 1999 Toyota COROLLA 1.3 Ankara 2.9.2026 15:30 1.000 TL
853 2012 Dacia DUSTER 1.5 DCI (85) 4x2 Muğla 2.9.2026 15:30 1.000 TL
854 2024 Motorsiklet JUPITER 125 Kayseri 2.9.2026 15:30 1.000 TL
855 2023 Motorsiklet DOMINAR D 250 İstanbul 2.9.2026 15:30 1.000 TL
856 2024 Motorsiklet NEWLIGHT 125 PRO İstanbul 2.9.2026 15:30 1.000 TL
857 2024 Motorsiklet FR177 Şehir Seç 2.9.2026 15:30 1.000 TL
858 2021 Renault EXPRESS COMBİ 1.5 BLUEDCI Osmaniye 2.9.2026 15:30 1.000 TL
859 2023 Motorsiklet 450 SR Şehir Seç 2.9.2026 15:30 1.000 TL
860 2011 Citroen NEMO PANELVAN 1.4 HDI Adana 2.9.2026 15:30 1.000 TL
861 2003 Mercedes ML 350 Erzincan 2.9.2026 15:30 1.000 TL
862 2014 Hyundai i20 1.4 CRDI Ankara 2.9.2026 15:30 1.000 TL
863 2024 Honda PCX 125 Çanakkale 2.9.2026 15:30 1.000 TL
864 1994 Fiat/Tofaş SAHİN 1.6 Konya 2.9.2026 15:30 1.000 TL
865 2017 Motorsiklet TITANIC 150 S Afyonkarahisar 2.9.2026 15:30 1.000 TL
866 2005 Peugeot 206 XT 1.4 16V Afyonkarahisar 2.9.2026 15:30 1.000 TL
867 1999 Fiat/Tofaş SIENA 1.4 Afyonkarahisar 2.9.2026 15:30 1.000 TL
868 2001 Renault CLIO SYMBOL 1.4 RNA Sivas 2.9.2026 15:30 1.000 TL
869 2017 Hyundai i20 1.4 CRDI Diyarbakır 2.9.2026 15:30 1.000 TL
870 2023 Motorsiklet VIESTE 249 Şehir Seç 2.9.2026 15:30 1.000 TL
871 2006 Opel ASTRA HB 1.3 CDTİ Hatay 2.9.2026 15:30 1.000 TL
872 2022 Fiat/Tofaş EGEA SEDAN 1.4 FIRE 95 Adana 2.9.2026 15:30 1.000 TL
873 2017 Renault MEGANE SEDAN 1.5 DCI 110 Kayseri 2.9.2026 15:30 1.000 TL
874 2012 Toyota AURIS 1.4 D-4D Samsun 2.9.2026 15:30 1.000 TL
875 2000 Citroen SAXO 1.5D Denizli 2.9.2026 15:30 1.000 TL
876 2009 Citroen JUMPER 2.2 HDI L4H2 Şehir Seç 2.9.2026 15:30 1.000 TL
877 2018 Toyota COROLLA 1.6 Aydın 2.9.2026 15:30 1.000 TL
878 2023 Motorsiklet MT 25 Şehir Seç 2.9.2026 15:30 1.000 TL
879 2012 Mercedes SPRINTER 315 CDI 16+1 Batman 2.9.2026 15:30 1.000 TL
880 2013 Mercedes CEKICI AXOR 1840 LS E5 Gaziantep 2.9.2026 15:30 1.000 TL
881 2024 Honda PCX 125 Gaziantep 2.9.2026 15:30 1.000 TL
882 2020 Ford CEKICI F-MAX Şehir Seç 2.9.2026 15:30 1.000 TL
883 2003 Volkswagen BORA 1.9 TDI Şehir Seç 2.9.2026 15:30 1.000 TL
884 2017 Isuzu N-WIDE LONG KAMYONET Bolu 2.9.2026 15:30 1.000 TL
885 2020 Renault SYMBOL JOY 1.0 TCE ECO Edirne 2.9.2026 15:30 1.000 TL
886 2024 Fiat/Tofaş EGEA SEDAN 1.4 FIRE Bingöl 2.9.2026 15:30 1.000 TL
887 2012 Skoda SUPERB 1.6 TDI Ankara 2.9.2026 15:30 1.000 TL
888 1996 Fiat/Tofaş UNO SX Tokat 2.9.2026 15:30 1.000 TL
889 2025 Honda FORZA 250 Samsun 2.9.2026 15:30 1.000 TL
890 2026 Toyota COROLLA 1.5 DREAM Balıkesir 2.9.2026 15:30 1.000 TL
891 1997 Ford TRANSİT KAMYONET Şehir Seç 2.9.2026 15:30 1.000 TL
892 2006 Fiat/Tofaş ALBEA 1.3 MULTIJET Samsun 2.9.2026 15:30 1.000 TL
893 2015 Peugeot 301 1.6 HDI Antalya 2.9.2026 15:30 1.000 TL
894 2023 Opel ASTRA HB 1.2 Şanlıurfa 2.9.2026 15:30 1.000 TL
895 1999 Desoto PD 250 AS Giresun 2.9.2026 15:30 1.000 TL
896 2024 Mg HS 1.5T (170) Bursa 2.9.2026 15:30 1.000 TL
897 2023 Motorsiklet PS5 125 İzmir 2.9.2026 15:30 1.000 TL
898 2021 Dorse/Römork HASTRAILER SÜT TANKERİ Denizli 2.9.2026 15:30 1.000 TL
899 2017 Mitsubishi L200 CIFT KABIN KAMYONET Diyarbakır 2.9.2026 15:30 1.000 TL
900 2004 Fiat/Tofaş PALIO 1.3 MULTIJET Kayseri 2.9.2026 15:30 1.000 TL
901 2016 Bmw 320i ED SEDAN Ankara 2.9.2026 15:30 1.000 TL
902 2016 Renault CLIO HB 1.5 DCI 75 Nevşehir 2.9.2026 15:30 1.000 TL
903 2023 Motorsiklet PRIDE 125 Adana 2.9.2026 15:30 1.000 TL
904 2007 Toyota COROLLA 1.4 D 4D TERRA Şehir Seç 2.9.2026 15:30 1.000 TL
905 2021 Opel CROSSLAND 1.5 DIZEL Muğla 2.9.2026 15:30 1.000 TL
906 2024 Motorsiklet JOYMAX Z+ 250 Şehir Seç 2.9.2026 15:30 1.000 TL
907 2010 Opel ASTRA HB 1.3 CDTi Kocaeli 2.9.2026 15:30 1.000 TL
908 2007 Hyundai GETZ 1.4 Şehir Seç 2.9.2026 15:30 1.000 TL
909 2024 Motorsiklet 250 SR İstanbul 2.9.2026 15:30 1.000 TL
910 2008 Fiat/Tofaş PALIO VAN 1.3 MULTIJET Aydın 2.9.2026 15:30 1.000 TL
911 1993 Fiat/Tofaş DOGAN SL Antalya 2.9.2026 15:30 1.000 TL
912 2007 Kia SORENTO 2.5 D Malatya 2.9.2026 15:30 1.000 TL
913 2025 Peugeot 2008 1.2 PURETECH 130 Elazığ 2.9.2026 15:30 1.000 TL
914 1991 Fiat/Tofaş SAHIN 1.6 Sakarya 2.9.2026 15:30 1.000 TL
915 2000 Peugeot 306 PLATINUM 1.6 Çanakkale 2.9.2026 15:30 1.000 TL
916 2010 Volkswagen PASSAT 2.0 TDI COMFORTLINE İzmir 2.9.2026 15:30 1.000 TL
917 2011 Dorse/Römork TENTELİ YARI RÖMORK Kocaeli 2.9.2026 15:30 1.000 TL
918 2011 Volkswagen POLO 1.4 (85) Antalya 2.9.2026 15:30 1.000 TL
919 2001 Mazda B 2500 CIFT KABIN SDX KAMYONET Şehir Seç 2.9.2026 15:30 1.000 TL
920 2014 Renault TRAFIC PANELVAN 6M3 2.0 DCI 115 Antalya 2.9.2026 15:30 1.000 TL
921 2016 Fiat/Tofaş EGEA HB 1.6 M.JET 120 Tekirdağ 2.9.2026 15:30 1.000 TL
922 2001 Renault R19 EUROPA RTE 1.6i ALIZE Kahramanmaraş 2.9.2026 15:30 1.000 TL
923 2006 Fiat/Tofaş PUNTO 1.3 MULTIJET 70 Antalya 2.9.2026 15:30 1.000 TL
924 2019 Toyota COROLLA 1.6 SEDAN Manisa 2.9.2026 15:30 1.000 TL
925 2013 Peugeot 2008 1.6 E-HDİ 92 Malatya 2.9.2026 15:30 1.000 TL
926 2023 Motorsiklet SPONTINI 110 İzmir 2.9.2026 15:30 1.000 TL
927 2008 Ford FOCUS 1.6 TDCi Şanlıurfa 2.9.2026 15:30 1.000 TL
928 2016 Ford TOURNEO COURIER 1.6 TDCI Diyarbakır 2.9.2026 15:30 1.000 TL
929 2004 Toyota COROLLA 1.6 SOL SEDAN (Y) Bursa 2.9.2026 15:30 1.000 TL
930 2024 Renault CLIO 1,0 TCE İstanbul 2.9.2026 15:30 1.000 TL
931 1993 Renault R9 BROADWAY 1.4 Şehir Seç 2.9.2026 15:30 1.000 TL
932 2020 Mercedes E 200 D Ankara 2.9.2026 15:30 1.000 TL
933 2013 Ford T.CONNECT KOMBI K210S GLX SILVER Konya 2.9.2026 15:30 1.000 TL
934 2006 Fiat/Tofaş ALBEA 1.3 MULTIJET DYNAMIC İstanbul 2.9.2026 15:30 1.000 TL
935 2024 Ford TOURNEO COURIER 1.0 ECOBOOST Bitlis 2.9.2026 15:30 1.000 TL
936 2023 Kia STONIC 1,4 MPI Uşak 2.9.2026 15:30 1.000 TL
937 2018 Peugeot 301 1.6 HDI İstanbul 2.9.2026 15:30 1.000 TL
938 2013 Volkswagen GOLF VII 1.6 TDI Şehir Seç 2.9.2026 15:30 1.000 TL
939 2010 Peugeot PARTNER ORIGIN 1.6 HDI Eskişehir 2.9.2026 15:30 1.000 TL
940 2011 Toyota AURIS 1.4 D 4D COMFORT EXTRA M/M Sivas 2.9.2026 15:30 1.000 TL
941 2023 Mg ZS 1.0T İstanbul 2.9.2026 15:30 1.000 TL
942 2011 Fiat/Tofaş ALBEA SOLE 1.3 MULTIJET DYNAMIC Kocaeli 2.9.2026 15:30 1.000 TL
943 2024 Honda PCX 125 Balıkesir 2.9.2026 15:30 1.000 TL
944 2024 Peugeot RIFTER 1.5 BLUEHDI 130 Elazığ 2.9.2026 15:30 1.000 TL
945 2008 Citroen BERLINGO COMBİ 1.6 HDI Samsun 2.9.2026 15:30 1.000 TL
946 2011 Karsan J10 14+1 MINIBUS Batman 2.9.2026 15:30 1.000 TL
947 2007 Ford T. CONNECT KOMBI K210S 1.8 TDCi Ankara 2.9.2026 15:30 1.000 TL
948 2024 Honda PCX 125 İstanbul 2.9.2026 15:30 1.000 TL
949 2017 Citroen C4 CACTUS 1.2 E-VTI 82 İstanbul 2.9.2026 15:30 1.000 TL
950 1993 Suzuki SWIFT 1.0 GL İstanbul 2.9.2026 15:30 1.000 TL
951 2025 Motorsiklet MAX PRO Şehir Seç 2.9.2026 15:30 1.000 TL
952 2014 Fiat/Tofaş DOBLO COMBI 1.3 M.JET Mersin 2.9.2026 15:30 1.000 TL
953 2016 Toyota COROLLA 1.33 Şehir Seç 2.9.2026 15:30 1.000 TL
954 2024 Toyota COROLLA 1.5 Aydın 2.9.2026 15:30 1.000 TL
955 2011 Toyota AURIS 1.4 D Kayseri 2.9.2026 15:30 1.000 TL
956 2024 Honda PCX 125 İstanbul 2.9.2026 15:30 1.000 TL
957 2024 Motorsiklet SPEED 400 Şehir Seç 2.9.2026 15:30 TL
958 2011 Ford FIESTA 1.25i Sakarya 2.9.2026 15:30 1.000 TL
959 1998 Peugeot 306 GRIFFE 1.6 Şehir Seç 2.9.2026 15:30 1.000 TL
960 2003 Bmw 520 İA Şehir Seç 2.9.2026 15:30 1.000 TL
961 2013 Fiat/Tofaş DUCATO VAN MAXI 2.3 MULTIJET Şehir Seç 2.9.2026 15:30 1.000 TL
962 2017 Mercedes C 200 D 1.6 Şanlıurfa 2.9.2026 15:30 1.000 TL
963 2012 Volkswagen JETTA 1.6 TDI Antalya 2.9.2026 15:30 1.000 TL
964 2008 Hyundai STAREX S CRDI Mersin 2.9.2026 15:30 1.000 TL
965 2024 Motorsiklet RAYZR Denizli 2.9.2026 15:30 1.000 TL
966 2022 Motorsiklet JET 14 Muğla 2.9.2026 15:30 1.000 TL
967 2004 Nissan MICRA 1.2 TEKNA 5 KAPI OV Kocaeli 2.9.2026 15:30 1.000 TL
968 2009 Peugeot 308 COMFORT 1.6 HDI AUTO6R Şehir Seç 2.9.2026 15:30 1.000 TL
969 2000 Opel ZAFIRA 1.6 Şanlıurfa 2.9.2026 15:30 1.000 TL
970 2024 Motorsiklet PULSAR RS 200 Şehir Seç 2.9.2026 15:30 1.000 TL
971 1995 Fiat/Tofaş DOGAN SLX Yozgat 2.9.2026 15:30 1.000 TL
972 2001 Opel VECTRA 1.6i COMFORT İstanbul 2.9.2026 15:30 1.000 TL
973 2011 Fiat/Tofaş FİORİNO COMBİ 1.3 M.JET 75 EMOTİON Antalya 2.9.2026 15:30 1.000 TL
974 2014 Hyundai I20 1.4 CRDİ Denizli 2.9.2026 15:30 1.000 TL
975 2005 Nissan ALMERA 1.5 TEKNA Düzce 2.9.2026 15:30 1.000 TL
976 2014 Volkswagen JETTA 1.6 TDI (105) Diyarbakır 2.9.2026 15:30 1.000 TL
977 2016 Mercedes VİTO TOURER 114 BLUETEC Antalya 2.9.2026 15:30 1.000 TL
978 1996 Toyota COROLLA 1.6 GLi Uşak 2.9.2026 15:30 1.000 TL
979 2021 Ford TOURNEO COURIER KOMBI 1.5 TDCI 100 Erzurum 2.9.2026 15:30 1.000 TL
980 2021 Toyota C-HR 1.8 HYBRİD Yalova 2.9.2026 15:30 1.000 TL
981 1997 Renault R19 EUROPA 1,4 Kahramanmaraş 2.9.2026 15:30 1.000 TL
982 2012 Fiat/Tofaş FIORINO COMBI 1.3 M.JET Konya 2.9.2026 15:30 1.000 TL
983 2018 Audi A3 SEDAN 1.6 TDI Diyarbakır 2.9.2026 15:30 1.000 TL
984 2023 Hyundai BAYON 1.4 MPI Denizli 2.9.2026 15:30 1.000 TL
985 2022 Motorsiklet ALTAI CARRIER 110 PRO İstanbul 2.9.2026 15:30 1.000 TL
986 2001 Fiat/Tofaş DOGAN 1.6 i.e. Şehir Seç 2.9.2026 15:30 1.000 TL
987 2011 Renault TRAFIC MULTIX GRAND CONFORT (6) 2.0 DCI Eskişehir 2.9.2026 15:30 1.000 TL
988 2012 Audi Q5 2.0 TDI QUATTRO 170 S TRONIC Adana 2.9.2026 15:30 1.000 TL
989 2018 Audi A3 SEDAN 1.6 TDI 116 S TRONIC İstanbul 2.9.2026 15:30 1.000 TL
990 2004 Fiat/Tofaş MAREA 1.6 EXCLUSIVE Samsun 2.9.2026 15:30 1.000 TL
991 2011 Hyundai ACCENT ERA 1.5 CRDi Tekirdağ 2.9.2026 15:30 1.000 TL
992 2022 Renault EXPRESS COMBI 1.5 BLUEHDI 95 Bursa 2.9.2026 15:30 1.000 TL
993 2025 Toyota YARIS 1.5 HYBRID E-CVT FL Bursa 2.9.2026 15:30 1.000 TL
994 2011 Skoda FABIA 1,6 TDI AMBIENTE DINAMIC Adana 2.9.2026 15:30 1.000 TL
995 2025 Citroen BERLINGO 1.5 BLUEHDI 130 Gaziantep 2.9.2026 15:30 1.000 TL
996 2012 Ford FOCUS III TITANIUM 1.6i (125) Adana 2.9.2026 15:30 1.000 TL
997 2012 Citroen C3 1.4 HDI Şehir Seç 2.9.2026 15:30 1.000 TL
998 1998 Renault 12 TSW TOROS 5 VT Karaman 2.9.2026 15:30 1.000 TL
999 1994 Honda CIVIC 1.3 L Denizli 2.9.2026 16:30 1.000 TL
1000 2019 Bmw 320i Afyonkarahisar 2.9.2026 16:30 952.500 TL
1001 2005 Volkswagen POLO 1.4 TRENDLINE Muğla 2.9.2026 16:30 1.000 TL
1002 2022 Honda PCX 125 Hatay 2.9.2026 16:30 1.000 TL
1003 2021 Honda CIVIC 1,6İ VTEC Ankara 2.9.2026 16:30 851.500 TL
1004 1993 Toyota COROLLA 1.6 XL Adana 2.9.2026 16:30 7.000 TL
1005 2022 Fiat/Tofaş FIORINO CARGO 1.3 M.JET Tekirdağ 2.9.2026 16:30 190.000 TL
1006 2015 Fiat/Tofaş 500X 1,6 MULTİJET Adana 2.9.2026 16:30 20.000 TL
1007 2008 Peugeot 207 1,4 TRENDY Kayseri 2.9.2026 16:30 1.000 TL
1008 2011 Toyota COROLLA 1,6 COMFORT İstanbul 2.9.2026 16:30 1.000 TL
1009 2023 Motorsiklet DOMINAR D 400 Ankara 2.9.2026 16:30 1.000 TL
1010 2011 Fiat/Tofaş FIORINO CARGO 1.3 MULTIJET Kayseri 2.9.2026 16:30 1.000 TL
1011 2021 Ford TOURNEO COURIER 1,5 TDCİ Mersin 2.9.2026 16:30 1.000 TL
1012 2011 Volkswagen GOLF VI 1.4 TSI TRENDLINE Muğla 2.9.2026 16:30 1.000 TL
1013 2016 Dacia DOKKER VAN 1,5 DCİ Muğla 2.9.2026 16:30 1.000 TL
1014 2023 Motorsiklet PULSAR N 250 Kocaeli 2.9.2026 16:30 1.000 TL
1015 2025 Motorsiklet RSX3 125 Diyarbakır 2.9.2026 16:30 1.000 TL
1016 2024 Motorsiklet NMAX 155 Antalya 2.9.2026 16:30 1.000 TL
1017 2024 Honda PCX 125 Muğla 2.9.2026 16:30 1.000 TL
1018 2021 Honda DIO Balıkesir 2.9.2026 16:30 1.000 TL
1019 2023 Ford TRANSIT PANELVAN Elazığ 2.9.2026 16:30 352.500 TL
1020 2021 Honda CIVIC 1,6İ VTEC Nevşehir 2.9.2026 16:30 1.000 TL
1021 2011 Ford TOURNEO CONNECT K210S 1.8 TDCi İzmir 2.9.2026 16:30 20.000 TL
1022 2013 Mitsubishi L200 CIFT KABIN KAMYONET Samsun 2.9.2026 16:30 1.000 TL
1023 2015 Opel CORSA 5 KAPI ESSENTIA 1.4 90 OV Gaziantep 2.9.2026 16:30 156.000 TL
1024 2015 Volkswagen GOLF 1.2 TSI BMT 110 COMFORTLINE Tokat 2.9.2026 16:30 1.000 TL
1025 2002 Volkswagen BORA VARIANT 1.6 COMFORTLINE Tokat 2.9.2026 16:30 1.000 TL
1026 2008 Ford FIESTA TITANIUM X ICA 1.4i 96 Antalya 2.9.2026 16:30 40.000 TL
1027 2008 Toyota COROLLA SEDAN 1.4 D-4D COMFORT Burdur 2.9.2026 16:30 11.000 TL
1028 2012 Chevrolet AVEO HB 1.4 16V LT Uşak 2.9.2026 16:30 500 TL
1029 2020 Toyota COROLLA 1.8 HYBRID DREAM E-CVT Ankara 2.9.2026 16:30 300.000 TL
1030 2022 Peugeot 3008 GT 1.5 BLUEHDI 130 EAT8 Ankara 2.9.2026 16:30 900.000 TL
1031 2024 Renault CLIO EVOLUTION 1.0 TCE X-TRONIC 90 İstanbul 2.9.2026 16:30 590.000 TL
1032 2008 Fiat/Tofaş DOBLO COMBI 1.3 MULTIJET PREMIO İstanbul 2.9.2026 16:30 1.000 TL
1033 2024 Honda CITY 4D 1.5 EXECUTIVE AT İstanbul 2.9.2026 16:30 302.000 TL
1034 2021 Citroen C3 FEEL 1.2 PURETECH 83 S&S İstanbul 2.9.2026 16:30 1.000 TL
1035 2022 Motorsiklet RKS TNT202 Rize 2.9.2026 16:30 500 TL
1036 2024 Motorsiklet MOTOLUX CEO110 İstanbul 2.9.2026 16:30 500 TL
1037 2017 Dacia DOKKER COMBI STEPWAY 1.5 DCI 90 Konya 2.9.2026 16:30 1.000 TL
1038 2011 Citroen C3 1.4 HDI CONFORT Ankara 2.9.2026 16:30 1.000 TL
1039 2025 Motorsiklet KUBA AZ50 Kocaeli 2.9.2026 16:30 500 TL
1040 1998 Volkswagen PASSAT 1.8 TURBO COMFORT Kayseri 2.9.2026 16:30 1.000 TL
1041 2024 Motorsiklet TVS RAIDER Ankara 2.9.2026 16:30 1.000 TL
1042 2011 Volkswagen JETTA 1.6 TDI (105) TRENDLINE İstanbul 2.9.2026 16:30 500 TL
1043 2011 Renault MEGANE COUPE DYNAMIQUE 1.5 DCI Antalya 2.9.2026 16:30 500 TL
1044 2020 Fiat/Tofaş EGEA SEDAN URBAN PLUS 1.4 FIRE 95 E6D Kocaeli 2.9.2026 16:30 500 TL
1045 2014 Bmw 320I SEDAN (170) EFFECIENT DYNAMICS MODERN İstanbul 2.9.2026 16:30 3.500 TL
1046 2024 Bmw İ5 EDRIVE40 M SPORT (160KW) İstanbul 2.9.2026 16:30 3.000 TL
1047 2017 Audi A3 SPORTBACK 1.0 TFSI 116 DYNAMIC S TRONIC PI İstanbul 2.9.2026 16:30 1.500 TL
1048 2017 Opel INSIGNIA NB 1.6D AT6 SPORT İstanbul 2.9.2026 16:30 2.000 TL
1049 2008 Ssangyong ACTYON SPORTS 2.0 OV Yalova 2.9.2026 16:30 1.500 TL
1050 2011 Peugeot BIPPER KOMBI OUTDOOR PLUS 1.4 HDI Aydın 2.9.2026 16:30 1.500 TL
1051 2008 Ford FIESTA 1.4I COMFORT Ordu 2.9.2026 16:30 1.500 TL
1052 2004 Renault MEGANE II SEDAN DYNAMIQUE 1.5 DCI Gaziantep 2.9.2026 16:30 500 TL
1053 2024 Motorsiklet HONDA PCX 125 Ordu 2.9.2026 16:30 2.000 TL
1054 2024 Dacia DUSTER ESSENTIAL BLUE DCI 115 4X4 Hatay 2.9.2026 16:30 5.500 TL
1055 2025 Kia STONIC ELEGANCE 1.0TGDI 100AT İstanbul 2.9.2026 16:30 525.000 TL
1056 2000 Hyundai ELANTRA 1.6 GLS OV (ESKI KASA) Kayseri 2.9.2026 16:30 500 TL
1057 2009 Citroen NEMO PANELVAN 1.4 HDI Erzurum 2.9.2026 16:30 500 TL
1058 2013 Hyundai IX35 1.6 GDI ELITE Tokat 2.9.2026 16:30 65.000 TL
1059 2002 Peugeot 307 1.6 XR İstanbul 2.9.2026 16:30 500 TL
1060 2011 Hyundai ACCENT ERA 1.4 TEAM İstanbul 2.9.2026 16:30 1.000 TL
1061 2007 Citroen C5 SXPK 1.6 HDI İstanbul 2.9.2026 16:30 500 TL
1062 2013 Motorsiklet ARORA AR 150 Malatya 2.9.2026 16:30 500 TL
1063 2011 Motorsiklet KUBA XY100E Hatay 2.9.2026 16:30 500 TL
1064 2016 Honda PCX 150 Isparta 2.9.2026 16:30 1.000 TL
1065 2006 Ford FIESTA 1.4 TDCi COMFORT Isparta 2.9.2026 16:30 1.000 TL
1066 2025 Motorsiklet 125 R Samsun 2.9.2026 16:30 1.000 TL
1067 2024 Citroen JUMPER MINIBUS 16+1 2.2 HDI İstanbul 2.9.2026 16:30 1.000 TL
1068 2011 Renault MEGANE HB 1.5 DCI Kocaeli 2.9.2026 16:30 1.000 TL
1069 2011 Renault LATITUDE 1.5 DCI İstanbul 2.9.2026 16:30 1.000 TL
1070 2008 Volkswagen POLO 1.4 Bursa 2.9.2026 16:30 1.000 TL
1071 2018 Dacia LODGY 1.5 DCI Tekirdağ 2.9.2026 16:30 100.000 TL
1072 2021 Honda DIO İstanbul 2.9.2026 16:30 1.000 TL
1073 2012 Renault SYMBOL 1.5 DCI Bursa 2.9.2026 16:30 76.500 TL
1074 2023 Motorsiklet JOYMAX Z 250 Bilecik 2.9.2026 16:30 1.500 TL
1075 1992 Fiat/Tofaş SAHIN 5 VITES Antalya 2.9.2026 16:30 5.000 TL
1076 2014 Audi A3 SEDAN 1.6 TDI Diyarbakır 2.9.2026 16:30 1.000 TL
1077 2021 Kia SPORTAGE 1.6 COOL Bursa 2.9.2026 16:30 1.000 TL
1078 2005 Renault CLIO SYMBOL 1.4 Karaman 2.9.2026 16:30 1.000 TL
1079 2022 Skoda KAMIQ 1.5 TSI PREMIUM Kırıkkale 3.9.2026 15:15 1.072.000 TL
1080 2018 Volkswagen TIGUAN 1.6 TDI COMFORTLİNE Mersin 3.9.2026 15:15 1.000 TL
1081 2016 Volkswagen POLO 1.2 TSI İstanbul 3.9.2026 15:15 730.500 TL
1082 2022 Renault CLIO JOY 1.0 TCE Sivas 3.9.2026 15:15 420.000 TL
1083 2022 Mercedes CEKICI ACTROSS 1845 LS 4x2 FL Uşak 3.9.2026 15:15 1.676.000 TL
1084 2025 Byd SEAL U DM-I Mersin 3.9.2026 15:15 1.012.000 TL
1085 2016 Ford TRANSIT Ankara 3.9.2026 15:15 1.000 TL
1086 2023 Alfa Romeo TONALE 1.3 HYBRID İzmir 3.9.2026 15:15 110.000 TL
1087 2008 Isuzu NPR KAMYON Tekirdağ 3.9.2026 15:15 1.000 TL
1088 2019 Iveco DAILY KAMYON 70 C 15 Antalya 3.9.2026 15:15 365.500 TL
1089 2010 Ford FOCUS 1.6 Ankara 3.9.2026 15:15 163.000 TL
1090 2021 Renault MEGANE SEDAN JOY 1.3 TCE İstanbul 3.9.2026 15:15 349.000 TL
1091 2016 Ford RANGER XLT 2.2 TDCI Erzurum 3.9.2026 15:15 495.000 TL
1092 2019 Mercedes KAMYON ATEGO 2124 Tekirdağ 3.9.2026 15:15 1.000 TL
1093 2011 Opel CORSA 1.4i TWINPORT Adana 3.9.2026 15:15 210.000 TL
1094 2017 Renault MEGANE SEDAN JOY 1.5 DCI Bursa 3.9.2026 15:15 1.000 TL
1095 2023 Ford KAMYON 3242S Samsun 3.9.2026 15:15 1.512.000 TL
1096 2026 Volvo EX30 EXTENDED RANGE ULTRA 150KW İstanbul 3.9.2026 15:15 1.000 TL
1097 2021 Skoda OCTAVIA 1.0 TSI e-TEC İstanbul 3.9.2026 15:15 1.000 TL
1098 2024 Chery TIGGO 8 PRO MAX 1.6 T-GDI Mardin 3.9.2026 15:15 1.000 TL
1099 2023 Mercedes ACTROSS 1845 LS Ankara 3.9.2026 15:30 1.000 TL
1100 2019 Motorsiklet 400 NK İstanbul 3.9.2026 15:30 1.000 TL
1101 2014 Renault FLUENCE JOY 1.5 DCI 90 Hatay 3.9.2026 15:30 1.000 TL
1102 2014 Dacia DOKKER COMBI STEPWAY 1.5 DCI Balıkesir 3.9.2026 15:30 1.000 TL
1103 2004 Peugeot BOXER 330 M 2.2 HDI VAN Tokat 3.9.2026 15:30 1.000 TL
1104 2019 Fiat/Tofaş EGEA SEDAN 1.3 M.JET Antalya 3.9.2026 15:30 1.000 TL
1105 2000 Volkswagen PASSAT 1.8 Erzurum 3.9.2026 15:30 1.000 TL
1106 2013 Volkswagen CARAVELLE 2.0 TDI Şehir Seç 3.9.2026 15:30 1.000 TL
1107 2024 Chery TIGGO 7 PRO Şehir Seç 3.9.2026 15:30 1.000 TL
1108 2025 Mercedes SPRINTER 16+1 Denizli 3.9.2026 15:30 1.000 TL
1109 2026 Toyota C-HR 1.8 HYBRID Şanlıurfa 3.9.2026 15:30 1.000 TL
1110 2020 Dorse/Römork Schmitz Cargobull FRIGOFRİK TİP SOĞUTUCU İzmir 3.9.2026 15:30 TL
1111 2016 Seat LEON 1.2 TSI İstanbul 3.9.2026 15:30 1.000 TL
1112 2018 Honda CIVIC 1,6İ DTEC Malatya 3.9.2026 15:30 1.000 TL
1113 2009 Renault MEGANE II SEDAN A.TIQUE 1.5 DCI Balıkesir 3.9.2026 15:30 1.000 TL
1114 2024 Motorsiklet RAIDER 125 Ankara 3.9.2026 15:30 1.000 TL
1115 2017 Renault MEGANE 1,6 Eskişehir 3.9.2026 15:30 1.000 TL
1116 2004 Renault KANGOO AUTHENTIQUE 1.5 DCI Çankırı 3.9.2026 15:30 1.000 TL
1117 1998 Opel ASTRA 1.4 SEDAN Balıkesir 3.9.2026 15:30 1.000 TL
1118 2009 Hyundai GETZ 1.5 CRDi Balıkesir 3.9.2026 15:30 1.000 TL
1119 2014 Renault CEKICI PREMIUM 460.18T İzmir 3.9.2026 15:30 1.000 TL
1120 2010 Ford MONDEO 1.6i SEDAN İstanbul 3.9.2026 15:30 1.000 TL
1121 2024 Motorsiklet CAPPUCINO 125 Batman 3.9.2026 15:30 1.000 TL
1122 2024 Citroen C3 1.2 PURETECH İstanbul 3.9.2026 15:30 1.000 TL
1123 2025 Ford TOURNEO COURIER 1.0 ECOBOOST İstanbul 3.9.2026 15:30 1.000 TL
1124 2014 Audi A4 2.0 TDI Antalya 3.9.2026 15:30 1.000 TL
1125 2016 Honda CIVIC 1.5 VTEC Denizli 3.9.2026 15:30 1.000 TL
1126 2007 Ford TRANSIT 300 S MINIBUS Van 3.9.2026 15:30 1.000 TL
1127 2024 Motorsiklet RAIDER 125 Mersin 3.9.2026 15:30 1.000 TL
1128 2026 Peugeot 2008 ALLURE 1.2 HYBRID Çorum 3.9.2026 15:30 1.000 TL
1129 2011 Ford FOCUS 1,6 TDCİ TITANIUM Bursa 3.9.2026 15:30 1.000 TL
1130 1999 Opel ASTRA 1,6 GL İstanbul 3.9.2026 15:30 1.000 TL
1131 2017 Fiat/Tofaş PRATICO KAMYONET 1.3 M.JET Kayseri 3.9.2026 15:30 1.000 TL
1132 2021 Fiat/Tofaş EGEA 1,3 MULTİJET İzmir 3.9.2026 15:30 1.000 TL
1133 2010 Renault MEGANE 3 HB AUTHENTIQUE 1.5 DCI Çorum 3.9.2026 15:30 1.000 TL
1134 2022 Motorsiklet NMAX 125 Düzce 3.9.2026 15:30 1.000 TL
1135 2012 Renault FLUENCE 1.5 DCI Diyarbakır 3.9.2026 15:30 1.000 TL
1136 2012 Mercedes KAMYON 3340 K Trabzon 3.9.2026 15:30 1.000 TL
1137 2016 Renault CLIO HB JOY 1.5 DCI Gaziantep 3.9.2026 15:30 1.000 TL
1138 2024 Motorsiklet JUPITER 125 İstanbul 3.9.2026 15:30 1.000 TL
1139 2011 Renault FLUENCE 1.5 DCI EXT. (85) Gaziantep 3.9.2026 15:30 1.000 TL
1140 2024 Honda PCX 125 Antalya 3.9.2026 15:30 1.000 TL
1141 2024 Honda PCX 125 Balıkesir 3.9.2026 15:30 1.000 TL
1142 2022 Suzuki GSX-R125 Bursa 3.9.2026 15:30 1.000 TL
1143 2012 Renault CLIO HB AUTHENTIQUE EDITION 1.5 DCI 65 E5 Afyonkarahisar 3.9.2026 15:30 1.000 TL
1144 2013 Peugeot CITYSTAR 200 Şehir Seç 3.9.2026 15:30 1.000 TL
1145 2020 Volvo S60 2.0 B5 AWD Ankara 3.9.2026 15:30 1.000 TL
1146 2008 Renault MASTER MİNÜBÜS 16+1 Zonguldak 3.9.2026 15:30 1.000 TL
1147 2024 Honda DIO 110 Kayseri 3.9.2026 15:30 1.000 TL
1148 2025 Motorsiklet CG50 ULTRA Kırklareli 3.9.2026 15:30 1.000 TL
1149 1993 Fiat/Tofaş ŞAHİN 1.6 Kayseri 3.9.2026 15:30 1.000 TL
1150 2021 Honda DİO 110 Antalya 3.9.2026 15:30 1.000 TL
1151 2025 Motorsiklet PS3 50 CC Kayseri 3.9.2026 15:30 1.000 TL
1152 2004 Citroen XSARA 1.4 HDİ Eskişehir 3.9.2026 15:30 1.000 TL
1153 2007 Opel CORSA 1.4i TWİNPORT ENJOY Ankara 3.9.2026 15:30 1.000 TL
1154 2012 Fiat/Tofaş DOBLO COMBI 1.6 M.JET 105 ELEGANCE Ankara 3.9.2026 15:30 1.000 TL
1155 2016 Renault CLIO HB 1.5 DCI 75 Ankara 3.9.2026 15:30 1.000 TL
1156 1998 Opel ASTRA 1.6 GLS Samsun 3.9.2026 15:30 1.000 TL
1157 1993 Fiat/Tofaş DOGAN SLX Adıyaman 3.9.2026 15:30 1.000 TL
1158 2012 Mitsubishi PAJERO 3.2 DID OV Elazığ 3.9.2026 15:30 1.000 TL
1159 2020 Kia BONGO TEK KABIN KAMYONET 2.5 Aydın 3.9.2026 15:30 1.000 TL
1160 2025 Citroen C4 X 1.2 PURETECH 130 Ankara 3.9.2026 15:30 1.000 TL
1161 2021 Ford TRANSIT 410L VAN 170 AMBULANS Ankara 3.9.2026 15:30 1.000 TL
1162 2016 Opel ASTRA HB 1.6 DIZEL 136 Diyarbakır 3.9.2026 15:30 1.000 TL
1163 2016 Motorsiklet MT 25 Kocaeli 3.9.2026 15:30 1.000 TL
1164 2024 Motorsiklet CHIA 125 PRO Balıkesir 3.9.2026 15:30 1.000 TL
1165 2023 Motorsiklet VESPA GTS 300 İstanbul 3.9.2026 15:30 1.000 TL
1166 2026 Fiat/Tofaş EGEA 1,6 MULTİJET Ordu 3.9.2026 15:30 1.000 TL
1167 2001 Fiat/Tofaş DOBLO 1.2 ELX Muğla 3.9.2026 15:30 1.000 TL
1168 2009 Renault SYMBOL 1,5 DCİ AUTHENTIQUE Giresun 3.9.2026 15:30 1.000 TL
1169 2024 Kgmobılıty MUSSO GRAND D2.2 4x2 Bolu 3.9.2026 15:30 1.000 TL
1170 2022 Renault MEGANE SEDAN 1.3 TCE EDC 140 İzmir 3.9.2026 15:30 1.000 TL
1171 2011 Fiat/Tofaş LİNEA 1.3 M.JET (90) İstanbul 3.9.2026 15:30 1.000 TL
1172 2015 Mazda 3 1.5 İstanbul 3.9.2026 15:30 1.000 TL
1173 2019 Hyundai TUCSON 1.6 CRDİ Ordu 3.9.2026 15:30 1.000 TL
1174 2018 Peugeot 308 1.6 BLUEHDI 120 Diyarbakır 3.9.2026 15:30 1.000 TL
1175 2021 Hyundai BAYON 1.4 MPI 100 Kahramanmaraş 3.9.2026 15:30 1.000 TL
1176 2015 Fiat/Tofaş FİORİNO CARGO 1.3 M.JET İzmir 3.9.2026 15:30 1.000 TL
1177 2022 Honda PCX 125 İstanbul 3.9.2026 15:30 1.000 TL
1178 2024 Opel CORSA 1.2 100 Hatay 3.9.2026 15:30 1.000 TL
1179 2019 Audi A3 SPORTBACK 30 1.0 TFSI Şehir Seç 3.9.2026 15:30 1.000 TL
1180 2020 Renault MEGANE SEDAN JOY 1.5 BLUEDCI Diyarbakır 3.9.2026 15:30 1.000 TL
1181 2020 Renault ZOE Manisa 3.9.2026 15:30 1.000 TL
1182 2023 Motorsiklet PULSAR RS 200 Isparta 3.9.2026 15:30 1.000 TL
1183 2009 Peugeot PARTNER TEPEE 1.6 HDI Ankara 3.9.2026 15:30 1.000 TL
1184 2014 Mercedes A 180 CDI Adana 3.9.2026 15:30 1.000 TL
1185 2014 Dacia DOKKER COMBI 1.5 DCI 90 Kahramanmaraş 3.9.2026 15:30 1.000 TL
1186 2014 Bmw 420D COUPE Bursa 3.9.2026 15:30 1.000 TL
1187 2013 Ford FIESTA 1.5 TDCI Samsun 3.9.2026 15:30 1.000 TL
1188 2024 Motorsiklet X MAX 250 Tokat 3.9.2026 15:30 1.000 TL
1189 2024 Honda NSS250A FORZA 250 İstanbul 3.9.2026 15:30 1.000 TL
1190 2025 Motorsiklet 450 SR Balıkesir 3.9.2026 15:30 1.000 TL
1191 1995 Fiat/Tofaş ŞAHİN 1.6 Antalya 3.9.2026 15:30 1.000 TL
1192 2023 Bmw CE 04 İstanbul 3.9.2026 15:30 1.000 TL
1193 2024 Motorsiklet SAFARI PRO Balıkesir 3.9.2026 15:30 1.000 TL
1194 2025 Motorsiklet SHARK 125 Ordu 3.9.2026 15:30 1.000 TL
1195 2019 Honda PCX 125 Antalya 3.9.2026 15:30 1.000 TL
1196 2009 Ford FOCUS TITANIUM 1.6 TDCi (109) Konya 3.9.2026 15:30 1.000 TL
1197 2014 Motorsiklet MT 07 Tekirdağ 3.9.2026 15:30 1.000 TL
1198 2018 Motorsiklet X-MAX 125 ABS Çanakkale 3.9.2026 15:30 1.000 TL
1199 2004 Fiat/Tofaş PALIO 1.3 MULTIJET ACTIVE Manisa 3.9.2026 15:30 1.000 TL
1200 2011 Renault FLUENCE BUSINESS 1.5 DCI (85) Antalya 3.9.2026 15:30 1.000 TL
1201 2014 Audi A3 SEDAN 1.6 TDI Kocaeli 3.9.2026 15:30 1.000 TL
1202 2020 Motorsiklet XMAX 250 Ankara 3.9.2026 15:30 1.000 TL
1203 2024 Motorsiklet RK 125 S İstanbul 3.9.2026 15:30 1.000 TL
1204 2022 Motorsiklet DOMİNAR D 400 Ankara 3.9.2026 15:30 1.000 TL
1205 2018 Renault MEGANE SEDAN 1.5 DCI İstanbul 3.9.2026 15:30 1.000 TL
1206 2013 Opel ASTRA SEDAN 1.4 Kayseri 3.9.2026 15:30 1.000 TL
1207 2020 Motorsiklet MT 07 Mersin 3.9.2026 15:30 1.000 TL
1208 2023 Motorsiklet SK 100-5 Hatay 3.9.2026 15:30 1.000 TL
1209 2014 Ford FIESTA 1.5 TDCI 75 Adana 3.9.2026 15:30 1.000 TL
1210 2017 Volkswagen TIGUAN 1.6 TDI SCR BMT 115 HIGHLINE Diyarbakır 3.9.2026 15:30 1.000 TL
1211 2016 Ford TRANSIT COURIER VAN 1.5 TDCİ 75 Ankara 3.9.2026 15:30 1.000 TL
1212 2017 Volkswagen GOLF 1.6 TDI BMT 115 DSG Ankara 3.9.2026 15:30 1.000 TL
1213 2019 Renault MEGANE SEDAN 1.6 16V 115 İzmir 3.9.2026 15:30 1.000 TL
1214 2016 Ford FOCUS III MCA 1.5 TDCI Batman 3.9.2026 15:30 1.000 TL
1215 2002 Ford FOCUS 1.6i COMFORT SEDAN Kütahya 3.9.2026 15:30 1.000 TL
1216 2023 Motorsiklet PULSAR RS 200 Şehir Seç 3.9.2026 15:30 1.000 TL
1217 2005 Skoda FABIA 1.4 TDI SPECIAL Kayseri 3.9.2026 15:30 1.000 TL
1218 2017 Ford FOCUS III MCA 1.5 TDCI Bitlis 3.9.2026 15:30 1.000 TL
1219 2015 Bmw 116d ED Eskişehir 3.9.2026 15:30 1.000 TL
1220 2006 Opel ASTRA CLASSIC 1.6i SEDAN Şanlıurfa 3.9.2026 15:30 1.000 TL
1221 2017 Ford FOCUS III 1.5 TDCI İstanbul 3.9.2026 15:30 1.000 TL
1222 2024 Motorsiklet GPD155A Şehir Seç 3.9.2026 15:30 1.000 TL
1223 2012 Ford TRANSIT 370L 13+1 MINIBUS (155) E4 GP Amasya 3.9.2026 16:30 20.000 TL
1224 2023 Motorsiklet HONDA NSS250A FORZA 250 İstanbul 3.9.2026 16:30 5.500 TL
1225 2009 Mitsubishi LANCER 1.5 INVITE OV İstanbul 3.9.2026 16:30 1.500 TL
1226 2024 Motorsiklet SYM ADX 125 E5 İstanbul 3.9.2026 16:30 1.000 TL
1227 2025 Motorsiklet KUBA TRENDY 50 (B94) Kocaeli 3.9.2026 16:30 1.000 TL
1228 1996 Toyota COROLLA 1.6 XEi (Y) Ankara 3.9.2026 16:30 1.000 TL
1229 2018 Chrysler RENEGADE 1.6 120 DDCT NIGHT EAGLE DIZEL E6 İstanbul 3.9.2026 16:30 145.000 TL
1230 2025 Fiat/Tofaş EGEA SEDAN URBAN 1.6 M.JET 130 DCT GSR İstanbul 3.9.2026 16:30 746.000 TL
1231 2012 Audi A3 SPORTBACK 1.6 İstanbul 3.9.2026 16:30 1.000 TL
1232 2015 Volkswagen PASSAT 1.4 TSI ACT BMT 150 COMFORTLINE İstanbul 3.9.2026 16:30 1.000 TL
1233 2004 Honda ACCORD 2.0 Antalya 3.9.2026 16:30 79.500 TL
1234 1996 Fiat/Tofaş SAHIN S Ankara 3.9.2026 16:30 1.000 TL
1235 2012 Chevrolet AVEO SEDAN 1.3 DİZEL İstanbul 3.9.2026 16:30 2.500 TL
1236 2001 Peugeot PARTNER 1.9D Kayseri 3.9.2026 16:30 1.000 TL
1237 2016 Nissan QASHQAI 1.2 TURBO SKYPACK X-TRONIC İzmir 4.9.2026 15:30 1.000 TL
1238 2023 Motorsiklet R25 ABS Mersin 4.9.2026 15:30 1.000 TL
1239 2025 Motorsiklet EGE 50 Mersin 4.9.2026 15:30 1.000 TL
1240 2010 Motorsiklet KLX 250 İstanbul 4.9.2026 15:30 1.000 TL
1241 2015 Audi A6 2.0 TDI (190) S TRONIC PI Ankara 4.9.2026 15:30 1.000 TL
1242 2020 Honda PCX 125 Gaziantep 4.9.2026 15:30 1.000 TL
1243 2011 Volkswagen CADDY KOMBI 1.6 TDI (102) Antalya 4.9.2026 15:30 1.000 TL
1244 2013 Dacia DOKKER COMBI AMBIANCE 1.5 DCI 90 Kayseri 4.9.2026 15:30 1.000 TL
1245 2023 Motorsiklet FREEDOM 50 Samsun 4.9.2026 15:30 1.000 TL
1246 2025 Motorsiklet YUKI 110 Konya 4.9.2026 15:30 1.000 TL
1247 2016 Bmw 520i SEDAN 1.6 (170) Bursa 4.9.2026 15:30 1.000 TL
1248 2008 Bmw 118i Antalya 4.9.2026 15:30 1.000 TL
1249 2023 Dacia JOGGER 1.0 ECO-G 100 7 KOLTUKLU Erzurum 4.9.2026 15:30 1.000 TL
1250 2014 Mercedes E 250 COUPE Antalya 4.9.2026 15:30 1.000 TL
1251 2012 Motorsiklet YZF R125 Antalya 4.9.2026 15:30 1.000 TL
1252 0 Emtea İstanbul 4.9.2026 15:30 TL
1253 1996 Fiat/Tofaş SAHIN 1.6 Yozgat 4.9.2026 15:30 1.000 TL
1254 2016 Motorsiklet YAMAHA GPD 125-A Denizli 4.9.2026 15:30 1.000 TL
1255 2005 Hyundai ACCENT 1.6 Adıyaman 4.9.2026 15:30 1.000 TL
1256 2014 Ford TRANSIT VAN Kayseri 4.9.2026 15:30 1.000 TL
1257 2016 Opel CORSA 1.4 Kayseri 4.9.2026 15:30 1.000 TL
1258 2017 Volkswagen POLO 1.4 TDI Antalya 4.9.2026 15:30 1.000 TL
1259 2023 Fiat/Tofaş EGEA SEDAN 1.4 FIRE Van 4.9.2026 15:30 1.000 TL
1260 1993 Fiat/Tofaş TEMPRA SX Ankara 4.9.2026 15:30 1.000 TL
1261 1988 Renault 12 TSW TOROS Balıkesir 4.9.2026 15:30 1.000 TL
1262 2022 Motorsiklet DUCATI MULTISTRADA V4 PIKES PEAK İstanbul 4.9.2026 16:30 1.000 TL
1263 1993 Renault 12 TSW TOROS 5 VT Diyarbakır 4.9.2026 16:30 1.000 TL
1264 2012 Mitsubishi L200 CIFT KABIN KAMYONET 4x2 INVITE Ankara 4.9.2026 16:30 1.000 TL
1265 2009 Renault SYMBOL EXPRESSION 1.4 75 İstanbul 4.9.2026 16:30 1.000 TL
1266 2006 Ford FOCUS 1.6i SW TREND (100) Ankara 4.9.2026 16:30 70.000 TL
1267 2014 Mercedes SPRINTER 416 CDI OTOBUS 19+1 Ankara 7.9.2026 15:30 1.000 TL
1268 2001 Fiat/Tofaş MAREA 1.6 ELX Kayseri 7.9.2026 15:30 1.000 TL
1269 1992 Fiat/Tofaş DOĞAN 1.6 Balıkesir 7.9.2026 15:30 1.000 TL
1270 2012 Ford T. CONNECT KOMBI 1.8 TDCi Siirt 7.9.2026 15:30 1.000 TL
1271 1995 Fiat/Tofaş UNO SX Gaziantep 7.9.2026 15:30 1.000 TL
1272 2024 Motorsiklet 250 SR Antalya 7.9.2026 15:30 1.000 TL
1273 2025 Motorsiklet 250 SR Antalya 8.9.2026 15:30 1.000 TL
1274 2004 Suzuki GSXR 750 Şehir Seç 8.9.2026 15:30 1.000 TL
1275 1996 Fiat/Tofaş KARTAL SLX Karaman 8.9.2026 15:30 1.000 TL
1276 2012 Skoda FABIA 1.2 Bolu 8.9.2026 15:30 1.000 TL
1277 2025 Citroen C4 X 1.2 PURETECH Niğde 8.9.2026 15:30 1.000 TL
1278 2019 Peugeot 3008 1.5 BLUEHDI Şanlıurfa 8.9.2026 15:30 1.000 TL
1279 2024 Peugeot e-2008 Kayseri 8.9.2026 15:30 1.000 TL
1280 2001 Renault CLIO SEDAN 1.4 RNA Balıkesir 8.9.2026 15:30 1.000 TL
1281 2017 Audi A6 2.0 TDI Şanlıurfa 8.9.2026 15:30 1.000 TL
1282 1989 Renault 11 FLASH Şehir Seç 8.9.2026 15:30 TL
1283 2024 Togg T10X V2 RWD UZUN MENZIL 160KW İzmir 8.9.2026 15:30 1.000 TL
1284 2017 Ford FOCUS III MCA 1.6 TDCI Niğde 8.9.2026 15:30 1.000 TL
1285 2016 Fiat/Tofaş DOBLO COMBI 1.6 M.JET Şanlıurfa 8.9.2026 15:30 1.000 TL
1286 2024 Motorsiklet KUBA TK03 Malatya 9.9.2026 15:30 1.000 TL
1287 2023 Motorsiklet KUBA EGE 50 Osmaniye 9.9.2026 15:30 1.000 TL
1288 2016 Bmw 520i SEDAN 1.6 (170) İstanbul 9.9.2026 15:30 1.000 TL
1289 2012 Volkswagen GOLF 1.6 TDI BMT 105 COMFORTLINE İstanbul 9.9.2026 15:30 1.000 TL
1290 2020 Motorsiklet KRAL YKR44 PION Şehir Seç 9.9.2026 15:30 1.000 TL
1291 2022 Motorsiklet 250 DUKE Gaziantep 9.9.2026 15:30 1.000 TL
1292 1998 Ford LCY UZUN ŞASİ Manisa 9.9.2026 15:30 1.000 TL
1293 2020 Motorsiklet MTN 250 Muğla 9.9.2026 15:30 1.000 TL
1294 2024 Motorsiklet MONDIAL SCOOTER FURY 110i Aydın 9.9.2026 15:30 1.000 TL
1295 2009 Ford TRANSIT KAMYONET Şanlıurfa 9.9.2026 15:30 1.000 TL
1296 2023 Motorsiklet VIESTE 249 Şehir Seç 10.9.2026 15:30 1.000 TL
1297 2013 Fiat/Tofaş LINEA SEDAN 1.3 MULTIJET Konya 10.9.2026 15:30 1.000 TL
1298 2023 Motorsiklet KRAL RIGIL 125 Muğla 10.9.2026 15:30 1.000 TL
1299 2018 Motorsiklet CUP 100 SFC SNAPPY X Niğde 10.9.2026 15:30 1.000 TL
1300 2017 Bmw 318i SEDAN 1.5 Bursa 10.9.2026 15:30 1.000 TL
1301 2012 Fiat/Tofaş LINEA 1.3 MULTIJET Şehir Seç 10.9.2026 15:30 1.000 TL
1302 2004 Opel VECTRA 1.6 COMFORT Şanlıurfa 10.9.2026 15:30 1.000 TL
1303 2014 Peugeot 301 1,6 HDI İzmir 10.9.2026 15:30 1.000 TL
1304 2025 Opel CORSA 1.2 T Hatay 10.9.2026 15:30 1.000 TL
1305 2024 Byd SEAL U DM-i Şanlıurfa 10.9.2026 15:30 1.000 TL
1306 2013 Renault SYMBOL 1.5 DCI Balıkesir 10.9.2026 15:30 1.000 TL
1307 2023 Motorsiklet PULSAR F250 İstanbul 10.9.2026 15:30 1.000 TL
1308 2013 Opel CORSA 1.3 CDTi İzmir 10.9.2026 15:30 1.000 TL
Deniz Uğurlu : 0532 6657413 - Abdullah Adsay : 0506 7521791 - Metin Oktay : 0532 6717940 -  WhatsApp Hattı: 0533 2028867
Banka Hesabımız
Copyright © 2003 , TAŞKIN  UĞURLU  Hasarlı Oto Tüm hakları saklıdır.